<gpx creator="Cyclotour.ca" version="1.1" xmlns:gpsies="http://www.gpsies.com/GPX/1/0" xmlns:xsi="http://www.w3.org/2001/XMLSchema-instance" xmlns="http://www.topografix.com/GPX/1/1" xsi:schemaLocation="http://www.topografix.com/GPX/1/1 http://www.topografix.com/GPX/1/1/gpx.xsd http://www.gpsies.com/GPX/1/0 http://www.gpsies.com/gpsies.xsd">
<trk>
<name>Burlington jour 1 TR-Sorel      74,1kM</name>
<trkseg>
<trkpt lat="46.341100000" lon="-72.590480000">
<ele>0</ele>
<time>2026-09-04T07:20:50Z</time>
</trkpt>
<trkpt lat="46.341090000" lon="-72.590490000">
<ele>0</ele>
<time>2026-09-04T07:20:51Z</time>
</trkpt>
<trkpt lat="46.341090000" lon="-72.590490000">
<ele>0</ele>
<time>2026-09-04T07:20:52Z</time>
</trkpt>
<trkpt lat="46.340240000" lon="-72.591840000">
<ele>0</ele>
<time>2026-09-04T07:20:53Z</time>
</trkpt>
<trkpt lat="46.339440000" lon="-72.593020000">
<ele>0</ele>
<time>2026-09-04T07:20:54Z</time>
</trkpt>
<trkpt lat="46.339280000" lon="-72.593310000">
<ele>0</ele>
<time>2026-09-04T07:20:55Z</time>
</trkpt>
<trkpt lat="46.339140000" lon="-72.593610000">
<ele>0</ele>
<time>2026-09-04T07:20:56Z</time>
</trkpt>
<trkpt lat="46.339070000" lon="-72.594040000">
<ele>0</ele>
<time>2026-09-04T07:20:57Z</time>
</trkpt>
<trkpt lat="46.339060000" lon="-72.594050000">
<ele>0</ele>
<time>2026-09-04T07:20:58Z</time>
</trkpt>
<trkpt lat="46.339070000" lon="-72.594160000">
<ele>0</ele>
<time>2026-09-04T07:20:59Z</time>
</trkpt>
<trkpt lat="46.339100000" lon="-72.594240000">
<ele>0</ele>
<time>2026-09-04T07:21:00Z</time>
</trkpt>
<trkpt lat="46.339070000" lon="-72.595390000">
<ele>0</ele>
<time>2026-09-04T07:21:01Z</time>
</trkpt>
<trkpt lat="46.339120000" lon="-72.595450000">
<ele>0</ele>
<time>2026-09-04T07:21:02Z</time>
</trkpt>
<trkpt lat="46.339120000" lon="-72.595450000">
<ele>0</ele>
<time>2026-09-04T07:21:03Z</time>
</trkpt>
<trkpt lat="46.339980000" lon="-72.596510000">
<ele>0</ele>
<time>2026-09-04T07:21:04Z</time>
</trkpt>
<trkpt lat="46.340470000" lon="-72.597220000">
<ele>0</ele>
<time>2026-09-04T07:21:05Z</time>
</trkpt>
<trkpt lat="46.340810000" lon="-72.597790000">
<ele>0</ele>
<time>2026-09-04T07:21:06Z</time>
</trkpt>
<trkpt lat="46.340930000" lon="-72.598100000">
<ele>0</ele>
<time>2026-09-04T07:21:07Z</time>
</trkpt>
<trkpt lat="46.341020000" lon="-72.598550000">
<ele>0</ele>
<time>2026-09-04T07:21:08Z</time>
</trkpt>
<trkpt lat="46.341020000" lon="-72.599700000">
<ele>0</ele>
<time>2026-09-04T07:21:09Z</time>
</trkpt>
<trkpt lat="46.340990000" lon="-72.602260000">
<ele>0</ele>
<time>2026-09-04T07:21:10Z</time>
</trkpt>
<trkpt lat="46.341030000" lon="-72.602820000">
<ele>0</ele>
<time>2026-09-04T07:21:11Z</time>
</trkpt>
<trkpt lat="46.341020000" lon="-72.603040000">
<ele>0</ele>
<time>2026-09-04T07:21:12Z</time>
</trkpt>
<trkpt lat="46.340930000" lon="-72.603410000">
<ele>0</ele>
<time>2026-09-04T07:21:13Z</time>
</trkpt>
<trkpt lat="46.340730000" lon="-72.603750000">
<ele>0</ele>
<time>2026-09-04T07:21:14Z</time>
</trkpt>
<trkpt lat="46.340310000" lon="-72.604320000">
<ele>0</ele>
<time>2026-09-04T07:21:15Z</time>
</trkpt>
<trkpt lat="46.339310000" lon="-72.605790000">
<ele>0</ele>
<time>2026-09-04T07:21:16Z</time>
</trkpt>
<trkpt lat="46.338830000" lon="-72.606550000">
<ele>0</ele>
<time>2026-09-04T07:21:17Z</time>
</trkpt>
<trkpt lat="46.338290000" lon="-72.607480000">
<ele>0</ele>
<time>2026-09-04T07:21:18Z</time>
</trkpt>
<trkpt lat="46.337950000" lon="-72.608020000">
<ele>0</ele>
<time>2026-09-04T07:21:19Z</time>
</trkpt>
<trkpt lat="46.337880000" lon="-72.608140000">
<ele>0</ele>
<time>2026-09-04T07:21:20Z</time>
</trkpt>
<trkpt lat="46.337800000" lon="-72.608170000">
<ele>0</ele>
<time>2026-09-04T07:21:21Z</time>
</trkpt>
<trkpt lat="46.337520000" lon="-72.608640000">
<ele>0</ele>
<time>2026-09-04T07:21:22Z</time>
</trkpt>
<trkpt lat="46.336600000" lon="-72.609950000">
<ele>0</ele>
<time>2026-09-04T07:21:23Z</time>
</trkpt>
<trkpt lat="46.335590000" lon="-72.611320000">
<ele>0</ele>
<time>2026-09-04T07:21:24Z</time>
</trkpt>
<trkpt lat="46.335420000" lon="-72.611550000">
<ele>0</ele>
<time>2026-09-04T07:21:25Z</time>
</trkpt>
<trkpt lat="46.335330000" lon="-72.611400000">
<ele>0</ele>
<time>2026-09-04T07:21:26Z</time>
</trkpt>
<trkpt lat="46.335330000" lon="-72.611400000">
<ele>0</ele>
<time>2026-09-04T07:21:27Z</time>
</trkpt>
<trkpt lat="46.333800000" lon="-72.608950000">
<ele>0</ele>
<time>2026-09-04T07:21:28Z</time>
</trkpt>
<trkpt lat="46.331650000" lon="-72.605600000">
<ele>0</ele>
<time>2026-09-04T07:21:29Z</time>
</trkpt>
<trkpt lat="46.330370000" lon="-72.603630000">
<ele>0</ele>
<time>2026-09-04T07:21:30Z</time>
</trkpt>
<trkpt lat="46.330100000" lon="-72.603220000">
<ele>0</ele>
<time>2026-09-04T07:21:31Z</time>
</trkpt>
<trkpt lat="46.329430000" lon="-72.602140000">
<ele>0</ele>
<time>2026-09-04T07:21:32Z</time>
</trkpt>
<trkpt lat="46.328390000" lon="-72.600570000">
<ele>0</ele>
<time>2026-09-04T07:21:33Z</time>
</trkpt>
<trkpt lat="46.328030000" lon="-72.600030000">
<ele>0</ele>
<time>2026-09-04T07:21:34Z</time>
</trkpt>
<trkpt lat="46.327700000" lon="-72.599820000">
<ele>0</ele>
<time>2026-09-04T07:21:35Z</time>
</trkpt>
<trkpt lat="46.327280000" lon="-72.599690000">
<ele>0</ele>
<time>2026-09-04T07:21:36Z</time>
</trkpt>
<trkpt lat="46.327240000" lon="-72.599890000">
<ele>0</ele>
<time>2026-09-04T07:21:37Z</time>
</trkpt>
<trkpt lat="46.327240000" lon="-72.599910000">
<ele>0</ele>
<time>2026-09-04T07:21:38Z</time>
</trkpt>
<trkpt lat="46.327240000" lon="-72.599910000">
<ele>0</ele>
<time>2026-09-04T07:21:39Z</time>
</trkpt>
<trkpt lat="46.327170000" lon="-72.600070000">
<ele>0</ele>
<time>2026-09-04T07:21:40Z</time>
</trkpt>
<trkpt lat="46.326170000" lon="-72.601110000">
<ele>0</ele>
<time>2026-09-04T07:21:41Z</time>
</trkpt>
<trkpt lat="46.325300000" lon="-72.602030000">
<ele>0</ele>
<time>2026-09-04T07:21:42Z</time>
</trkpt>
<trkpt lat="46.324660000" lon="-72.602820000">
<ele>0</ele>
<time>2026-09-04T07:21:43Z</time>
</trkpt>
<trkpt lat="46.324250000" lon="-72.603330000">
<ele>0</ele>
<time>2026-09-04T07:21:44Z</time>
</trkpt>
<trkpt lat="46.323520000" lon="-72.604250000">
<ele>0</ele>
<time>2026-09-04T07:21:45Z</time>
</trkpt>
<trkpt lat="46.322990000" lon="-72.604870000">
<ele>0</ele>
<time>2026-09-04T07:21:46Z</time>
</trkpt>
<trkpt lat="46.322690000" lon="-72.605140000">
<ele>0</ele>
<time>2026-09-04T07:21:47Z</time>
</trkpt>
<trkpt lat="46.322330000" lon="-72.605470000">
<ele>0</ele>
<time>2026-09-04T07:21:48Z</time>
</trkpt>
<trkpt lat="46.322090000" lon="-72.605770000">
<ele>0</ele>
<time>2026-09-04T07:21:49Z</time>
</trkpt>
<trkpt lat="46.321920000" lon="-72.606110000">
<ele>0</ele>
<time>2026-09-04T07:21:50Z</time>
</trkpt>
<trkpt lat="46.321650000" lon="-72.606860000">
<ele>0</ele>
<time>2026-09-04T07:21:51Z</time>
</trkpt>
<trkpt lat="46.321480000" lon="-72.607280000">
<ele>0</ele>
<time>2026-09-04T07:21:52Z</time>
</trkpt>
<trkpt lat="46.321380000" lon="-72.607640000">
<ele>0</ele>
<time>2026-09-04T07:21:53Z</time>
</trkpt>
<trkpt lat="46.321350000" lon="-72.607990000">
<ele>0</ele>
<time>2026-09-04T07:21:54Z</time>
</trkpt>
<trkpt lat="46.321400000" lon="-72.608410000">
<ele>0</ele>
<time>2026-09-04T07:21:55Z</time>
</trkpt>
<trkpt lat="46.321710000" lon="-72.610350000">
<ele>0</ele>
<time>2026-09-04T07:21:56Z</time>
</trkpt>
<trkpt lat="46.321900000" lon="-72.611450000">
<ele>0</ele>
<time>2026-09-04T07:21:57Z</time>
</trkpt>
<trkpt lat="46.322000000" lon="-72.611940000">
<ele>0</ele>
<time>2026-09-04T07:21:58Z</time>
</trkpt>
<trkpt lat="46.322030000" lon="-72.612300000">
<ele>0</ele>
<time>2026-09-04T07:21:59Z</time>
</trkpt>
<trkpt lat="46.322020000" lon="-72.612690000">
<ele>0</ele>
<time>2026-09-04T07:22:00Z</time>
</trkpt>
<trkpt lat="46.321980000" lon="-72.612990000">
<ele>0</ele>
<time>2026-09-04T07:22:01Z</time>
</trkpt>
<trkpt lat="46.321900000" lon="-72.613420000">
<ele>0</ele>
<time>2026-09-04T07:22:02Z</time>
</trkpt>
<trkpt lat="46.321790000" lon="-72.613830000">
<ele>0</ele>
<time>2026-09-04T07:22:03Z</time>
</trkpt>
<trkpt lat="46.321600000" lon="-72.614270000">
<ele>0</ele>
<time>2026-09-04T07:22:04Z</time>
</trkpt>
<trkpt lat="46.321460000" lon="-72.614510000">
<ele>0</ele>
<time>2026-09-04T07:22:05Z</time>
</trkpt>
<trkpt lat="46.321210000" lon="-72.614840000">
<ele>0</ele>
<time>2026-09-04T07:22:06Z</time>
</trkpt>
<trkpt lat="46.320980000" lon="-72.615040000">
<ele>0</ele>
<time>2026-09-04T07:22:07Z</time>
</trkpt>
<trkpt lat="46.320740000" lon="-72.615140000">
<ele>0</ele>
<time>2026-09-04T07:22:08Z</time>
</trkpt>
<trkpt lat="46.320710000" lon="-72.615330000">
<ele>0</ele>
<time>2026-09-04T07:22:09Z</time>
</trkpt>
<trkpt lat="46.320710000" lon="-72.615330000">
<ele>0</ele>
<time>2026-09-04T07:22:10Z</time>
</trkpt>
<trkpt lat="46.320470000" lon="-72.616930000">
<ele>0</ele>
<time>2026-09-04T07:22:11Z</time>
</trkpt>
<trkpt lat="46.320180000" lon="-72.618580000">
<ele>0</ele>
<time>2026-09-04T07:22:12Z</time>
</trkpt>
<trkpt lat="46.319980000" lon="-72.619880000">
<ele>0</ele>
<time>2026-09-04T07:22:13Z</time>
</trkpt>
<trkpt lat="46.319910000" lon="-72.620200000">
<ele>0</ele>
<time>2026-09-04T07:22:14Z</time>
</trkpt>
<trkpt lat="46.319690000" lon="-72.620940000">
<ele>0</ele>
<time>2026-09-04T07:22:15Z</time>
</trkpt>
<trkpt lat="46.319490000" lon="-72.621350000">
<ele>0</ele>
<time>2026-09-04T07:22:16Z</time>
</trkpt>
<trkpt lat="46.319160000" lon="-72.621790000">
<ele>0</ele>
<time>2026-09-04T07:22:17Z</time>
</trkpt>
<trkpt lat="46.318180000" lon="-72.622600000">
<ele>0</ele>
<time>2026-09-04T07:22:18Z</time>
</trkpt>
<trkpt lat="46.316930000" lon="-72.623630000">
<ele>0</ele>
<time>2026-09-04T07:22:19Z</time>
</trkpt>
<trkpt lat="46.315400000" lon="-72.624900000">
<ele>0</ele>
<time>2026-09-04T07:22:20Z</time>
</trkpt>
<trkpt lat="46.315070000" lon="-72.625140000">
<ele>0</ele>
<time>2026-09-04T07:22:21Z</time>
</trkpt>
<trkpt lat="46.314840000" lon="-72.625430000">
<ele>0</ele>
<time>2026-09-04T07:22:22Z</time>
</trkpt>
<trkpt lat="46.314700000" lon="-72.625660000">
<ele>0</ele>
<time>2026-09-04T07:22:23Z</time>
</trkpt>
<trkpt lat="46.314420000" lon="-72.626200000">
<ele>0</ele>
<time>2026-09-04T07:22:24Z</time>
</trkpt>
<trkpt lat="46.314310000" lon="-72.626650000">
<ele>0</ele>
<time>2026-09-04T07:22:25Z</time>
</trkpt>
<trkpt lat="46.314200000" lon="-72.627300000">
<ele>0</ele>
<time>2026-09-04T07:22:26Z</time>
</trkpt>
<trkpt lat="46.313960000" lon="-72.628510000">
<ele>0</ele>
<time>2026-09-04T07:22:27Z</time>
</trkpt>
<trkpt lat="46.313540000" lon="-72.629740000">
<ele>0</ele>
<time>2026-09-04T07:22:28Z</time>
</trkpt>
<trkpt lat="46.313150000" lon="-72.630500000">
<ele>0</ele>
<time>2026-09-04T07:22:29Z</time>
</trkpt>
<trkpt lat="46.312870000" lon="-72.630930000">
<ele>0</ele>
<time>2026-09-04T07:22:30Z</time>
</trkpt>
<trkpt lat="46.311160000" lon="-72.633530000">
<ele>0</ele>
<time>2026-09-04T07:22:31Z</time>
</trkpt>
<trkpt lat="46.309890000" lon="-72.635460000">
<ele>0</ele>
<time>2026-09-04T07:22:32Z</time>
</trkpt>
<trkpt lat="46.309430000" lon="-72.636170000">
<ele>0</ele>
<time>2026-09-04T07:22:33Z</time>
</trkpt>
<trkpt lat="46.309020000" lon="-72.636930000">
<ele>0</ele>
<time>2026-09-04T07:22:34Z</time>
</trkpt>
<trkpt lat="46.308510000" lon="-72.638010000">
<ele>0</ele>
<time>2026-09-04T07:22:35Z</time>
</trkpt>
<trkpt lat="46.307910000" lon="-72.639420000">
<ele>0</ele>
<time>2026-09-04T07:22:36Z</time>
</trkpt>
<trkpt lat="46.306950000" lon="-72.641630000">
<ele>0</ele>
<time>2026-09-04T07:22:37Z</time>
</trkpt>
<trkpt lat="46.306900000" lon="-72.641830000">
<ele>0</ele>
<time>2026-09-04T07:22:38Z</time>
</trkpt>
<trkpt lat="46.306410000" lon="-72.643020000">
<ele>0</ele>
<time>2026-09-04T07:22:39Z</time>
</trkpt>
<trkpt lat="46.306260000" lon="-72.643330000">
<ele>0</ele>
<time>2026-09-04T07:22:40Z</time>
</trkpt>
<trkpt lat="46.306030000" lon="-72.643920000">
<ele>0</ele>
<time>2026-09-04T07:22:41Z</time>
</trkpt>
<trkpt lat="46.305450000" lon="-72.645340000">
<ele>0</ele>
<time>2026-09-04T07:22:42Z</time>
</trkpt>
<trkpt lat="46.305370000" lon="-72.645690000">
<ele>0</ele>
<time>2026-09-04T07:22:43Z</time>
</trkpt>
<trkpt lat="46.305210000" lon="-72.646280000">
<ele>0</ele>
<time>2026-09-04T07:22:44Z</time>
</trkpt>
<trkpt lat="46.305100000" lon="-72.646800000">
<ele>0</ele>
<time>2026-09-04T07:22:45Z</time>
</trkpt>
<trkpt lat="46.305020000" lon="-72.647420000">
<ele>0</ele>
<time>2026-09-04T07:22:46Z</time>
</trkpt>
<trkpt lat="46.304740000" lon="-72.650120000">
<ele>0</ele>
<time>2026-09-04T07:22:47Z</time>
</trkpt>
<trkpt lat="46.304400000" lon="-72.653840000">
<ele>0</ele>
<time>2026-09-04T07:22:48Z</time>
</trkpt>
<trkpt lat="46.304220000" lon="-72.655770000">
<ele>0</ele>
<time>2026-09-04T07:22:49Z</time>
</trkpt>
<trkpt lat="46.304050000" lon="-72.657280000">
<ele>0</ele>
<time>2026-09-04T07:22:50Z</time>
</trkpt>
<trkpt lat="46.303930000" lon="-72.658480000">
<ele>0</ele>
<time>2026-09-04T07:22:51Z</time>
</trkpt>
<trkpt lat="46.303860000" lon="-72.659000000">
<ele>0</ele>
<time>2026-09-04T07:22:52Z</time>
</trkpt>
<trkpt lat="46.303680000" lon="-72.659620000">
<ele>0</ele>
<time>2026-09-04T07:22:53Z</time>
</trkpt>
<trkpt lat="46.303590000" lon="-72.659860000">
<ele>0</ele>
<time>2026-09-04T07:22:54Z</time>
</trkpt>
<trkpt lat="46.303440000" lon="-72.660090000">
<ele>0</ele>
<time>2026-09-04T07:22:55Z</time>
</trkpt>
<trkpt lat="46.303200000" lon="-72.660390000">
<ele>0</ele>
<time>2026-09-04T07:22:56Z</time>
</trkpt>
<trkpt lat="46.302860000" lon="-72.660580000">
<ele>0</ele>
<time>2026-09-04T07:22:57Z</time>
</trkpt>
<trkpt lat="46.301990000" lon="-72.660910000">
<ele>0</ele>
<time>2026-09-04T07:22:58Z</time>
</trkpt>
<trkpt lat="46.301650000" lon="-72.661040000">
<ele>0</ele>
<time>2026-09-04T07:22:59Z</time>
</trkpt>
<trkpt lat="46.300950000" lon="-72.661310000">
<ele>0</ele>
<time>2026-09-04T07:23:00Z</time>
</trkpt>
<trkpt lat="46.300110000" lon="-72.661650000">
<ele>0</ele>
<time>2026-09-04T07:23:01Z</time>
</trkpt>
<trkpt lat="46.299630000" lon="-72.661950000">
<ele>0</ele>
<time>2026-09-04T07:23:02Z</time>
</trkpt>
<trkpt lat="46.299290000" lon="-72.662290000">
<ele>0</ele>
<time>2026-09-04T07:23:03Z</time>
</trkpt>
<trkpt lat="46.299080000" lon="-72.662560000">
<ele>0</ele>
<time>2026-09-04T07:23:04Z</time>
</trkpt>
<trkpt lat="46.298530000" lon="-72.663490000">
<ele>0</ele>
<time>2026-09-04T07:23:05Z</time>
</trkpt>
<trkpt lat="46.297910000" lon="-72.664530000">
<ele>0</ele>
<time>2026-09-04T07:23:06Z</time>
</trkpt>
<trkpt lat="46.297280000" lon="-72.665600000">
<ele>0</ele>
<time>2026-09-04T07:23:07Z</time>
</trkpt>
<trkpt lat="46.296900000" lon="-72.666200000">
<ele>0</ele>
<time>2026-09-04T07:23:08Z</time>
</trkpt>
<trkpt lat="46.296750000" lon="-72.666380000">
<ele>0</ele>
<time>2026-09-04T07:23:09Z</time>
</trkpt>
<trkpt lat="46.296420000" lon="-72.666750000">
<ele>0</ele>
<time>2026-09-04T07:23:10Z</time>
</trkpt>
<trkpt lat="46.296170000" lon="-72.666990000">
<ele>0</ele>
<time>2026-09-04T07:23:11Z</time>
</trkpt>
<trkpt lat="46.295780000" lon="-72.667280000">
<ele>0</ele>
<time>2026-09-04T07:23:12Z</time>
</trkpt>
<trkpt lat="46.295020000" lon="-72.667830000">
<ele>0</ele>
<time>2026-09-04T07:23:13Z</time>
</trkpt>
<trkpt lat="46.293560000" lon="-72.668900000">
<ele>0</ele>
<time>2026-09-04T07:23:14Z</time>
</trkpt>
<trkpt lat="46.292860000" lon="-72.669410000">
<ele>0</ele>
<time>2026-09-04T07:23:15Z</time>
</trkpt>
<trkpt lat="46.292290000" lon="-72.669940000">
<ele>0</ele>
<time>2026-09-04T07:23:16Z</time>
</trkpt>
<trkpt lat="46.291740000" lon="-72.670620000">
<ele>0</ele>
<time>2026-09-04T07:23:17Z</time>
</trkpt>
<trkpt lat="46.291210000" lon="-72.671290000">
<ele>0</ele>
<time>2026-09-04T07:23:18Z</time>
</trkpt>
<trkpt lat="46.291130000" lon="-72.671430000">
<ele>0</ele>
<time>2026-09-04T07:23:19Z</time>
</trkpt>
<trkpt lat="46.289610000" lon="-72.673650000">
<ele>0</ele>
<time>2026-09-04T07:23:20Z</time>
</trkpt>
<trkpt lat="46.289200000" lon="-72.674260000">
<ele>0</ele>
<time>2026-09-04T07:23:21Z</time>
</trkpt>
<trkpt lat="46.289080000" lon="-72.674480000">
<ele>0</ele>
<time>2026-09-04T07:23:22Z</time>
</trkpt>
<trkpt lat="46.288340000" lon="-72.676530000">
<ele>0</ele>
<time>2026-09-04T07:23:23Z</time>
</trkpt>
<trkpt lat="46.287940000" lon="-72.677810000">
<ele>0</ele>
<time>2026-09-04T07:23:24Z</time>
</trkpt>
<trkpt lat="46.287810000" lon="-72.678450000">
<ele>0</ele>
<time>2026-09-04T07:23:25Z</time>
</trkpt>
<trkpt lat="46.287760000" lon="-72.678880000">
<ele>0</ele>
<time>2026-09-04T07:23:26Z</time>
</trkpt>
<trkpt lat="46.287710000" lon="-72.679480000">
<ele>0</ele>
<time>2026-09-04T07:23:27Z</time>
</trkpt>
<trkpt lat="46.287660000" lon="-72.680010000">
<ele>0</ele>
<time>2026-09-04T07:23:28Z</time>
</trkpt>
<trkpt lat="46.287570000" lon="-72.680520000">
<ele>0</ele>
<time>2026-09-04T07:23:29Z</time>
</trkpt>
<trkpt lat="46.287000000" lon="-72.682730000">
<ele>0</ele>
<time>2026-09-04T07:23:30Z</time>
</trkpt>
<trkpt lat="46.286640000" lon="-72.683880000">
<ele>0</ele>
<time>2026-09-04T07:23:31Z</time>
</trkpt>
<trkpt lat="46.286540000" lon="-72.684060000">
<ele>0</ele>
<time>2026-09-04T07:23:32Z</time>
</trkpt>
<trkpt lat="46.286600000" lon="-72.684210000">
<ele>0</ele>
<time>2026-09-04T07:23:33Z</time>
</trkpt>
<trkpt lat="46.286600000" lon="-72.684210000">
<ele>0</ele>
<time>2026-09-04T07:23:34Z</time>
</trkpt>
<trkpt lat="46.287160000" lon="-72.685710000">
<ele>0</ele>
<time>2026-09-04T07:23:35Z</time>
</trkpt>
<trkpt lat="46.287420000" lon="-72.686340000">
<ele>0</ele>
<time>2026-09-04T07:23:36Z</time>
</trkpt>
<trkpt lat="46.287770000" lon="-72.687350000">
<ele>0</ele>
<time>2026-09-04T07:23:37Z</time>
</trkpt>
<trkpt lat="46.287890000" lon="-72.687780000">
<ele>0</ele>
<time>2026-09-04T07:23:38Z</time>
</trkpt>
<trkpt lat="46.287900000" lon="-72.687800000">
<ele>0</ele>
<time>2026-09-04T07:23:39Z</time>
</trkpt>
<trkpt lat="46.287990000" lon="-72.688370000">
<ele>0</ele>
<time>2026-09-04T07:23:40Z</time>
</trkpt>
<trkpt lat="46.287990000" lon="-72.688560000">
<ele>0</ele>
<time>2026-09-04T07:23:41Z</time>
</trkpt>
<trkpt lat="46.287950000" lon="-72.688710000">
<ele>0</ele>
<time>2026-09-04T07:23:42Z</time>
</trkpt>
<trkpt lat="46.287820000" lon="-72.689010000">
<ele>0</ele>
<time>2026-09-04T07:23:43Z</time>
</trkpt>
<trkpt lat="46.287740000" lon="-72.689170000">
<ele>0</ele>
<time>2026-09-04T07:23:44Z</time>
</trkpt>
<trkpt lat="46.287540000" lon="-72.689510000">
<ele>0</ele>
<time>2026-09-04T07:23:45Z</time>
</trkpt>
<trkpt lat="46.286870000" lon="-72.690540000">
<ele>0</ele>
<time>2026-09-04T07:23:46Z</time>
</trkpt>
<trkpt lat="46.286730000" lon="-72.690700000">
<ele>0</ele>
<time>2026-09-04T07:23:47Z</time>
</trkpt>
<trkpt lat="46.286500000" lon="-72.690810000">
<ele>0</ele>
<time>2026-09-04T07:23:48Z</time>
</trkpt>
<trkpt lat="46.286520000" lon="-72.690980000">
<ele>0</ele>
<time>2026-09-04T07:23:49Z</time>
</trkpt>
<trkpt lat="46.286520000" lon="-72.690980000">
<ele>0</ele>
<time>2026-09-04T07:23:50Z</time>
</trkpt>
<trkpt lat="46.286590000" lon="-72.691860000">
<ele>0</ele>
<time>2026-09-04T07:23:51Z</time>
</trkpt>
<trkpt lat="46.286610000" lon="-72.692440000">
<ele>0</ele>
<time>2026-09-04T07:23:52Z</time>
</trkpt>
<trkpt lat="46.286610000" lon="-72.693240000">
<ele>0</ele>
<time>2026-09-04T07:23:53Z</time>
</trkpt>
<trkpt lat="46.286620000" lon="-72.693740000">
<ele>0</ele>
<time>2026-09-04T07:23:54Z</time>
</trkpt>
<trkpt lat="46.286670000" lon="-72.694120000">
<ele>0</ele>
<time>2026-09-04T07:23:55Z</time>
</trkpt>
<trkpt lat="46.286790000" lon="-72.694630000">
<ele>0</ele>
<time>2026-09-04T07:23:56Z</time>
</trkpt>
<trkpt lat="46.287170000" lon="-72.695660000">
<ele>0</ele>
<time>2026-09-04T07:23:57Z</time>
</trkpt>
<trkpt lat="46.287710000" lon="-72.697160000">
<ele>0</ele>
<time>2026-09-04T07:23:58Z</time>
</trkpt>
<trkpt lat="46.288050000" lon="-72.698240000">
<ele>0</ele>
<time>2026-09-04T07:23:59Z</time>
</trkpt>
<trkpt lat="46.288680000" lon="-72.700240000">
<ele>0</ele>
<time>2026-09-04T07:24:00Z</time>
</trkpt>
<trkpt lat="46.290130000" lon="-72.703840000">
<ele>0</ele>
<time>2026-09-04T07:24:01Z</time>
</trkpt>
<trkpt lat="46.290880000" lon="-72.705700000">
<ele>0</ele>
<time>2026-09-04T07:24:02Z</time>
</trkpt>
<trkpt lat="46.291110000" lon="-72.706290000">
<ele>0</ele>
<time>2026-09-04T07:24:03Z</time>
</trkpt>
<trkpt lat="46.291260000" lon="-72.706730000">
<ele>0</ele>
<time>2026-09-04T07:24:04Z</time>
</trkpt>
<trkpt lat="46.291360000" lon="-72.707090000">
<ele>0</ele>
<time>2026-09-04T07:24:05Z</time>
</trkpt>
<trkpt lat="46.291360000" lon="-72.707090000">
<ele>0</ele>
<time>2026-09-04T07:24:06Z</time>
</trkpt>
<trkpt lat="46.293240000" lon="-72.713480000">
<ele>0</ele>
<time>2026-09-04T07:24:07Z</time>
</trkpt>
<trkpt lat="46.293930000" lon="-72.715790000">
<ele>0</ele>
<time>2026-09-04T07:24:08Z</time>
</trkpt>
<trkpt lat="46.294380000" lon="-72.717110000">
<ele>0</ele>
<time>2026-09-04T07:24:09Z</time>
</trkpt>
<trkpt lat="46.295040000" lon="-72.718760000">
<ele>0</ele>
<time>2026-09-04T07:24:10Z</time>
</trkpt>
<trkpt lat="46.295320000" lon="-72.719410000">
<ele>0</ele>
<time>2026-09-04T07:24:11Z</time>
</trkpt>
<trkpt lat="46.296510000" lon="-72.722210000">
<ele>0</ele>
<time>2026-09-04T07:24:12Z</time>
</trkpt>
<trkpt lat="46.296710000" lon="-72.722760000">
<ele>0</ele>
<time>2026-09-04T07:24:13Z</time>
</trkpt>
<trkpt lat="46.296820000" lon="-72.723130000">
<ele>0</ele>
<time>2026-09-04T07:24:14Z</time>
</trkpt>
<trkpt lat="46.297010000" lon="-72.723800000">
<ele>0</ele>
<time>2026-09-04T07:24:15Z</time>
</trkpt>
<trkpt lat="46.297120000" lon="-72.724260000">
<ele>0</ele>
<time>2026-09-04T07:24:16Z</time>
</trkpt>
<trkpt lat="46.297200000" lon="-72.724780000">
<ele>0</ele>
<time>2026-09-04T07:24:17Z</time>
</trkpt>
<trkpt lat="46.297300000" lon="-72.725580000">
<ele>0</ele>
<time>2026-09-04T07:24:18Z</time>
</trkpt>
<trkpt lat="46.297390000" lon="-72.727020000">
<ele>0</ele>
<time>2026-09-04T07:24:19Z</time>
</trkpt>
<trkpt lat="46.297520000" lon="-72.729320000">
<ele>0</ele>
<time>2026-09-04T07:24:20Z</time>
</trkpt>
<trkpt lat="46.297640000" lon="-72.731660000">
<ele>0</ele>
<time>2026-09-04T07:24:21Z</time>
</trkpt>
<trkpt lat="46.297640000" lon="-72.731660000">
<ele>0</ele>
<time>2026-09-04T07:24:22Z</time>
</trkpt>
<trkpt lat="46.297860000" lon="-72.735810000">
<ele>0</ele>
<time>2026-09-04T07:24:23Z</time>
</trkpt>
<trkpt lat="46.297960000" lon="-72.738370000">
<ele>0</ele>
<time>2026-09-04T07:24:24Z</time>
</trkpt>
<trkpt lat="46.297960000" lon="-72.740280000">
<ele>0</ele>
<time>2026-09-04T07:24:25Z</time>
</trkpt>
<trkpt lat="46.297900000" lon="-72.742480000">
<ele>0</ele>
<time>2026-09-04T07:24:26Z</time>
</trkpt>
<trkpt lat="46.297830000" lon="-72.743840000">
<ele>0</ele>
<time>2026-09-04T07:24:27Z</time>
</trkpt>
<trkpt lat="46.297700000" lon="-72.745460000">
<ele>0</ele>
<time>2026-09-04T07:24:28Z</time>
</trkpt>
<trkpt lat="46.297430000" lon="-72.747910000">
<ele>0</ele>
<time>2026-09-04T07:24:29Z</time>
</trkpt>
<trkpt lat="46.297140000" lon="-72.749840000">
<ele>0</ele>
<time>2026-09-04T07:24:30Z</time>
</trkpt>
<trkpt lat="46.296960000" lon="-72.750970000">
<ele>0</ele>
<time>2026-09-04T07:24:31Z</time>
</trkpt>
<trkpt lat="46.296660000" lon="-72.752530000">
<ele>0</ele>
<time>2026-09-04T07:24:32Z</time>
</trkpt>
<trkpt lat="46.295880000" lon="-72.756600000">
<ele>0</ele>
<time>2026-09-04T07:24:33Z</time>
</trkpt>
<trkpt lat="46.295730000" lon="-72.757360000">
<ele>0</ele>
<time>2026-09-04T07:24:34Z</time>
</trkpt>
<trkpt lat="46.295730000" lon="-72.757360000">
<ele>0</ele>
<time>2026-09-04T07:24:35Z</time>
</trkpt>
<trkpt lat="46.294380000" lon="-72.764380000">
<ele>0</ele>
<time>2026-09-04T07:24:36Z</time>
</trkpt>
<trkpt lat="46.294210000" lon="-72.765200000">
<ele>0</ele>
<time>2026-09-04T07:24:37Z</time>
</trkpt>
<trkpt lat="46.293810000" lon="-72.766840000">
<ele>0</ele>
<time>2026-09-04T07:24:38Z</time>
</trkpt>
<trkpt lat="46.292420000" lon="-72.771280000">
<ele>0</ele>
<time>2026-09-04T07:24:39Z</time>
</trkpt>
<trkpt lat="46.291790000" lon="-72.773280000">
<ele>0</ele>
<time>2026-09-04T07:24:40Z</time>
</trkpt>
<trkpt lat="46.291590000" lon="-72.774030000">
<ele>0</ele>
<time>2026-09-04T07:24:41Z</time>
</trkpt>
<trkpt lat="46.291450000" lon="-72.774670000">
<ele>0</ele>
<time>2026-09-04T07:24:42Z</time>
</trkpt>
<trkpt lat="46.291380000" lon="-72.775090000">
<ele>0</ele>
<time>2026-09-04T07:24:43Z</time>
</trkpt>
<trkpt lat="46.291290000" lon="-72.775760000">
<ele>0</ele>
<time>2026-09-04T07:24:44Z</time>
</trkpt>
<trkpt lat="46.291240000" lon="-72.776540000">
<ele>0</ele>
<time>2026-09-04T07:24:45Z</time>
</trkpt>
<trkpt lat="46.291230000" lon="-72.777280000">
<ele>0</ele>
<time>2026-09-04T07:24:46Z</time>
</trkpt>
<trkpt lat="46.291260000" lon="-72.778570000">
<ele>0</ele>
<time>2026-09-04T07:24:47Z</time>
</trkpt>
<trkpt lat="46.291380000" lon="-72.782110000">
<ele>0</ele>
<time>2026-09-04T07:24:48Z</time>
</trkpt>
<trkpt lat="46.291540000" lon="-72.787230000">
<ele>0</ele>
<time>2026-09-04T07:24:49Z</time>
</trkpt>
<trkpt lat="46.291630000" lon="-72.790170000">
<ele>0</ele>
<time>2026-09-04T07:24:50Z</time>
</trkpt>
<trkpt lat="46.291630000" lon="-72.791680000">
<ele>0</ele>
<time>2026-09-04T07:24:51Z</time>
</trkpt>
<trkpt lat="46.291560000" lon="-72.792760000">
<ele>0</ele>
<time>2026-09-04T07:24:52Z</time>
</trkpt>
<trkpt lat="46.291450000" lon="-72.793770000">
<ele>0</ele>
<time>2026-09-04T07:24:53Z</time>
</trkpt>
<trkpt lat="46.290480000" lon="-72.801090000">
<ele>0</ele>
<time>2026-09-04T07:24:54Z</time>
</trkpt>
<trkpt lat="46.290330000" lon="-72.802360000">
<ele>0</ele>
<time>2026-09-04T07:24:55Z</time>
</trkpt>
<trkpt lat="46.290150000" lon="-72.803630000">
<ele>0</ele>
<time>2026-09-04T07:24:56Z</time>
</trkpt>
<trkpt lat="46.289760000" lon="-72.806510000">
<ele>0</ele>
<time>2026-09-04T07:24:57Z</time>
</trkpt>
<trkpt lat="46.288460000" lon="-72.816230000">
<ele>0</ele>
<time>2026-09-04T07:24:58Z</time>
</trkpt>
<trkpt lat="46.288110000" lon="-72.818920000">
<ele>0</ele>
<time>2026-09-04T07:24:59Z</time>
</trkpt>
<trkpt lat="46.287990000" lon="-72.819760000">
<ele>0</ele>
<time>2026-09-04T07:25:00Z</time>
</trkpt>
<trkpt lat="46.287870000" lon="-72.820220000">
<ele>0</ele>
<time>2026-09-04T07:25:01Z</time>
</trkpt>
<trkpt lat="46.287610000" lon="-72.821080000">
<ele>0</ele>
<time>2026-09-04T07:25:02Z</time>
</trkpt>
<trkpt lat="46.287270000" lon="-72.821920000">
<ele>0</ele>
<time>2026-09-04T07:25:03Z</time>
</trkpt>
<trkpt lat="46.287010000" lon="-72.822460000">
<ele>0</ele>
<time>2026-09-04T07:25:04Z</time>
</trkpt>
<trkpt lat="46.285960000" lon="-72.824350000">
<ele>0</ele>
<time>2026-09-04T07:25:05Z</time>
</trkpt>
<trkpt lat="46.284820000" lon="-72.826360000">
<ele>0</ele>
<time>2026-09-04T07:25:06Z</time>
</trkpt>
<trkpt lat="46.284450000" lon="-72.827020000">
<ele>0</ele>
<time>2026-09-04T07:25:07Z</time>
</trkpt>
<trkpt lat="46.284450000" lon="-72.827020000">
<ele>0</ele>
<time>2026-09-04T07:25:08Z</time>
</trkpt>
<trkpt lat="46.284040000" lon="-72.827710000">
<ele>0</ele>
<time>2026-09-04T07:25:09Z</time>
</trkpt>
<trkpt lat="46.283260000" lon="-72.829130000">
<ele>0</ele>
<time>2026-09-04T07:25:10Z</time>
</trkpt>
<trkpt lat="46.282830000" lon="-72.829970000">
<ele>0</ele>
<time>2026-09-04T07:25:11Z</time>
</trkpt>
<trkpt lat="46.282360000" lon="-72.830770000">
<ele>0</ele>
<time>2026-09-04T07:25:12Z</time>
</trkpt>
<trkpt lat="46.282110000" lon="-72.831190000">
<ele>0</ele>
<time>2026-09-04T07:25:13Z</time>
</trkpt>
<trkpt lat="46.281950000" lon="-72.831490000">
<ele>0</ele>
<time>2026-09-04T07:25:14Z</time>
</trkpt>
<trkpt lat="46.281590000" lon="-72.832330000">
<ele>0</ele>
<time>2026-09-04T07:25:15Z</time>
</trkpt>
<trkpt lat="46.280180000" lon="-72.836130000">
<ele>0</ele>
<time>2026-09-04T07:25:16Z</time>
</trkpt>
<trkpt lat="46.279460000" lon="-72.838100000">
<ele>0</ele>
<time>2026-09-04T07:25:17Z</time>
</trkpt>
<trkpt lat="46.278910000" lon="-72.839620000">
<ele>0</ele>
<time>2026-09-04T07:25:18Z</time>
</trkpt>
<trkpt lat="46.278540000" lon="-72.840810000">
<ele>0</ele>
<time>2026-09-04T07:25:19Z</time>
</trkpt>
<trkpt lat="46.277710000" lon="-72.843660000">
<ele>0</ele>
<time>2026-09-04T07:25:20Z</time>
</trkpt>
<trkpt lat="46.276640000" lon="-72.847300000">
<ele>0</ele>
<time>2026-09-04T07:25:21Z</time>
</trkpt>
<trkpt lat="46.276000000" lon="-72.849480000">
<ele>0</ele>
<time>2026-09-04T07:25:22Z</time>
</trkpt>
<trkpt lat="46.275670000" lon="-72.850590000">
<ele>0</ele>
<time>2026-09-04T07:25:23Z</time>
</trkpt>
<trkpt lat="46.275260000" lon="-72.851790000">
<ele>0</ele>
<time>2026-09-04T07:25:24Z</time>
</trkpt>
<trkpt lat="46.274660000" lon="-72.853300000">
<ele>0</ele>
<time>2026-09-04T07:25:25Z</time>
</trkpt>
<trkpt lat="46.274100000" lon="-72.854520000">
<ele>0</ele>
<time>2026-09-04T07:25:26Z</time>
</trkpt>
<trkpt lat="46.273430000" lon="-72.855820000">
<ele>0</ele>
<time>2026-09-04T07:25:27Z</time>
</trkpt>
<trkpt lat="46.271900000" lon="-72.858850000">
<ele>0</ele>
<time>2026-09-04T07:25:28Z</time>
</trkpt>
<trkpt lat="46.270670000" lon="-72.861280000">
<ele>0</ele>
<time>2026-09-04T07:25:29Z</time>
</trkpt>
<trkpt lat="46.270170000" lon="-72.862260000">
<ele>0</ele>
<time>2026-09-04T07:25:30Z</time>
</trkpt>
<trkpt lat="46.270170000" lon="-72.862260000">
<ele>0</ele>
<time>2026-09-04T07:25:31Z</time>
</trkpt>
<trkpt lat="46.267660000" lon="-72.867160000">
<ele>0</ele>
<time>2026-09-04T07:25:32Z</time>
</trkpt>
<trkpt lat="46.265790000" lon="-72.870870000">
<ele>0</ele>
<time>2026-09-04T07:25:33Z</time>
</trkpt>
<trkpt lat="46.265110000" lon="-72.872230000">
<ele>0</ele>
<time>2026-09-04T07:25:34Z</time>
</trkpt>
<trkpt lat="46.264630000" lon="-72.873160000">
<ele>0</ele>
<time>2026-09-04T07:25:35Z</time>
</trkpt>
<trkpt lat="46.263900000" lon="-72.874620000">
<ele>0</ele>
<time>2026-09-04T07:25:36Z</time>
</trkpt>
<trkpt lat="46.263560000" lon="-72.875340000">
<ele>0</ele>
<time>2026-09-04T07:25:37Z</time>
</trkpt>
<trkpt lat="46.263530000" lon="-72.875480000">
<ele>0</ele>
<time>2026-09-04T07:25:38Z</time>
</trkpt>
<trkpt lat="46.263230000" lon="-72.876110000">
<ele>0</ele>
<time>2026-09-04T07:25:39Z</time>
</trkpt>
<trkpt lat="46.262680000" lon="-72.877110000">
<ele>0</ele>
<time>2026-09-04T07:25:40Z</time>
</trkpt>
<trkpt lat="46.262570000" lon="-72.877360000">
<ele>0</ele>
<time>2026-09-04T07:25:41Z</time>
</trkpt>
<trkpt lat="46.262570000" lon="-72.877360000">
<ele>0</ele>
<time>2026-09-04T07:25:42Z</time>
</trkpt>
<trkpt lat="46.262530000" lon="-72.877520000">
<ele>0</ele>
<time>2026-09-04T07:25:43Z</time>
</trkpt>
<trkpt lat="46.262520000" lon="-72.877700000">
<ele>0</ele>
<time>2026-09-04T07:25:44Z</time>
</trkpt>
<trkpt lat="46.262540000" lon="-72.877800000">
<ele>0</ele>
<time>2026-09-04T07:25:45Z</time>
</trkpt>
<trkpt lat="46.262530000" lon="-72.877910000">
<ele>0</ele>
<time>2026-09-04T07:25:46Z</time>
</trkpt>
<trkpt lat="46.262500000" lon="-72.877990000">
<ele>0</ele>
<time>2026-09-04T07:25:47Z</time>
</trkpt>
<trkpt lat="46.262430000" lon="-72.878080000">
<ele>0</ele>
<time>2026-09-04T07:25:48Z</time>
</trkpt>
<trkpt lat="46.262340000" lon="-72.878240000">
<ele>0</ele>
<time>2026-09-04T07:25:49Z</time>
</trkpt>
<trkpt lat="46.262250000" lon="-72.878470000">
<ele>0</ele>
<time>2026-09-04T07:25:50Z</time>
</trkpt>
<trkpt lat="46.262120000" lon="-72.879120000">
<ele>0</ele>
<time>2026-09-04T07:25:51Z</time>
</trkpt>
<trkpt lat="46.262070000" lon="-72.879430000">
<ele>0</ele>
<time>2026-09-04T07:25:52Z</time>
</trkpt>
<trkpt lat="46.262030000" lon="-72.879550000">
<ele>0</ele>
<time>2026-09-04T07:25:53Z</time>
</trkpt>
<trkpt lat="46.262000000" lon="-72.879590000">
<ele>0</ele>
<time>2026-09-04T07:25:54Z</time>
</trkpt>
<trkpt lat="46.261940000" lon="-72.880070000">
<ele>0</ele>
<time>2026-09-04T07:25:55Z</time>
</trkpt>
<trkpt lat="46.261890000" lon="-72.880630000">
<ele>0</ele>
<time>2026-09-04T07:25:56Z</time>
</trkpt>
<trkpt lat="46.261880000" lon="-72.881350000">
<ele>0</ele>
<time>2026-09-04T07:25:57Z</time>
</trkpt>
<trkpt lat="46.262000000" lon="-72.885070000">
<ele>0</ele>
<time>2026-09-04T07:25:58Z</time>
</trkpt>
<trkpt lat="46.262160000" lon="-72.890170000">
<ele>0</ele>
<time>2026-09-04T07:25:59Z</time>
</trkpt>
<trkpt lat="46.262160000" lon="-72.891080000">
<ele>0</ele>
<time>2026-09-04T07:26:00Z</time>
</trkpt>
<trkpt lat="46.262140000" lon="-72.891490000">
<ele>0</ele>
<time>2026-09-04T07:26:01Z</time>
</trkpt>
<trkpt lat="46.262010000" lon="-72.892680000">
<ele>0</ele>
<time>2026-09-04T07:26:02Z</time>
</trkpt>
<trkpt lat="46.261720000" lon="-72.895000000">
<ele>0</ele>
<time>2026-09-04T07:26:03Z</time>
</trkpt>
<trkpt lat="46.261250000" lon="-72.898500000">
<ele>0</ele>
<time>2026-09-04T07:26:04Z</time>
</trkpt>
<trkpt lat="46.260970000" lon="-72.900130000">
<ele>0</ele>
<time>2026-09-04T07:26:05Z</time>
</trkpt>
<trkpt lat="46.260550000" lon="-72.901930000">
<ele>0</ele>
<time>2026-09-04T07:26:06Z</time>
</trkpt>
<trkpt lat="46.259960000" lon="-72.904430000">
<ele>0</ele>
<time>2026-09-04T07:26:07Z</time>
</trkpt>
<trkpt lat="46.259450000" lon="-72.906700000">
<ele>0</ele>
<time>2026-09-04T07:26:08Z</time>
</trkpt>
<trkpt lat="46.259450000" lon="-72.906700000">
<ele>0</ele>
<time>2026-09-04T07:26:09Z</time>
</trkpt>
<trkpt lat="46.259240000" lon="-72.907710000">
<ele>0</ele>
<time>2026-09-04T07:26:10Z</time>
</trkpt>
<trkpt lat="46.259050000" lon="-72.908890000">
<ele>0</ele>
<time>2026-09-04T07:26:11Z</time>
</trkpt>
<trkpt lat="46.259010000" lon="-72.909180000">
<ele>0</ele>
<time>2026-09-04T07:26:12Z</time>
</trkpt>
<trkpt lat="46.258680000" lon="-72.911980000">
<ele>0</ele>
<time>2026-09-04T07:26:13Z</time>
</trkpt>
<trkpt lat="46.258330000" lon="-72.915210000">
<ele>0</ele>
<time>2026-09-04T07:26:14Z</time>
</trkpt>
<trkpt lat="46.257380000" lon="-72.923540000">
<ele>0</ele>
<time>2026-09-04T07:26:15Z</time>
</trkpt>
<trkpt lat="46.257350000" lon="-72.924160000">
<ele>0</ele>
<time>2026-09-04T07:26:16Z</time>
</trkpt>
<trkpt lat="46.257240000" lon="-72.925100000">
<ele>0</ele>
<time>2026-09-04T07:26:17Z</time>
</trkpt>
<trkpt lat="46.257100000" lon="-72.926260000">
<ele>0</ele>
<time>2026-09-04T07:26:18Z</time>
</trkpt>
<trkpt lat="46.257100000" lon="-72.926260000">
<ele>0</ele>
<time>2026-09-04T07:26:19Z</time>
</trkpt>
<trkpt lat="46.256810000" lon="-72.928760000">
<ele>0</ele>
<time>2026-09-04T07:26:20Z</time>
</trkpt>
<trkpt lat="46.256640000" lon="-72.930350000">
<ele>0</ele>
<time>2026-09-04T07:26:21Z</time>
</trkpt>
<trkpt lat="46.256480000" lon="-72.931630000">
<ele>0</ele>
<time>2026-09-04T07:26:22Z</time>
</trkpt>
<trkpt lat="46.256390000" lon="-72.932770000">
<ele>0</ele>
<time>2026-09-04T07:26:23Z</time>
</trkpt>
<trkpt lat="46.256240000" lon="-72.935130000">
<ele>0</ele>
<time>2026-09-04T07:26:24Z</time>
</trkpt>
<trkpt lat="46.256130000" lon="-72.938010000">
<ele>0</ele>
<time>2026-09-04T07:26:25Z</time>
</trkpt>
<trkpt lat="46.256050000" lon="-72.939680000">
<ele>0</ele>
<time>2026-09-04T07:26:26Z</time>
</trkpt>
<trkpt lat="46.255870000" lon="-72.939660000">
<ele>0</ele>
<time>2026-09-04T07:26:27Z</time>
</trkpt>
<trkpt lat="46.255870000" lon="-72.939660000">
<ele>0</ele>
<time>2026-09-04T07:26:28Z</time>
</trkpt>
<trkpt lat="46.255450000" lon="-72.939620000">
<ele>0</ele>
<time>2026-09-04T07:26:29Z</time>
</trkpt>
<trkpt lat="46.255130000" lon="-72.939560000">
<ele>0</ele>
<time>2026-09-04T07:26:30Z</time>
</trkpt>
<trkpt lat="46.255110000" lon="-72.939760000">
<ele>0</ele>
<time>2026-09-04T07:26:31Z</time>
</trkpt>
<trkpt lat="46.255110000" lon="-72.939760000">
<ele>0</ele>
<time>2026-09-04T07:26:32Z</time>
</trkpt>
<trkpt lat="46.254860000" lon="-72.944030000">
<ele>0</ele>
<time>2026-09-04T07:26:33Z</time>
</trkpt>
<trkpt lat="46.254690000" lon="-72.946730000">
<ele>0</ele>
<time>2026-09-04T07:26:34Z</time>
</trkpt>
<trkpt lat="46.254530000" lon="-72.948950000">
<ele>0</ele>
<time>2026-09-04T07:26:35Z</time>
</trkpt>
<trkpt lat="46.254480000" lon="-72.949820000">
<ele>0</ele>
<time>2026-09-04T07:26:36Z</time>
</trkpt>
<trkpt lat="46.254510000" lon="-72.950240000">
<ele>0</ele>
<time>2026-09-04T07:26:37Z</time>
</trkpt>
<trkpt lat="46.254400000" lon="-72.950310000">
<ele>0</ele>
<time>2026-09-04T07:26:38Z</time>
</trkpt>
<trkpt lat="46.254400000" lon="-72.950310000">
<ele>0</ele>
<time>2026-09-04T07:26:39Z</time>
</trkpt>
<trkpt lat="46.254270000" lon="-72.950390000">
<ele>0</ele>
<time>2026-09-04T07:26:40Z</time>
</trkpt>
<trkpt lat="46.254020000" lon="-72.950610000">
<ele>0</ele>
<time>2026-09-04T07:26:41Z</time>
</trkpt>
<trkpt lat="46.253450000" lon="-72.951300000">
<ele>0</ele>
<time>2026-09-04T07:26:42Z</time>
</trkpt>
<trkpt lat="46.253030000" lon="-72.951920000">
<ele>0</ele>
<time>2026-09-04T07:26:43Z</time>
</trkpt>
<trkpt lat="46.252590000" lon="-72.952580000">
<ele>0</ele>
<time>2026-09-04T07:26:44Z</time>
</trkpt>
<trkpt lat="46.252490000" lon="-72.952590000">
<ele>0</ele>
<time>2026-09-04T07:26:45Z</time>
</trkpt>
<trkpt lat="46.252490000" lon="-72.952590000">
<ele>0</ele>
<time>2026-09-04T07:26:46Z</time>
</trkpt>
<trkpt lat="46.251870000" lon="-72.952610000">
<ele>0</ele>
<time>2026-09-04T07:26:47Z</time>
</trkpt>
<trkpt lat="46.251870000" lon="-72.952720000">
<ele>0</ele>
<time>2026-09-04T07:26:48Z</time>
</trkpt>
<trkpt lat="46.251870000" lon="-72.952720000">
<ele>0</ele>
<time>2026-09-04T07:26:49Z</time>
</trkpt>
<trkpt lat="46.251710000" lon="-72.955610000">
<ele>0</ele>
<time>2026-09-04T07:26:50Z</time>
</trkpt>
<trkpt lat="46.251620000" lon="-72.957650000">
<ele>0</ele>
<time>2026-09-04T07:26:51Z</time>
</trkpt>
<trkpt lat="46.251470000" lon="-72.960490000">
<ele>0</ele>
<time>2026-09-04T07:26:52Z</time>
</trkpt>
<trkpt lat="46.251420000" lon="-72.960650000">
<ele>0</ele>
<time>2026-09-04T07:26:53Z</time>
</trkpt>
<trkpt lat="46.251340000" lon="-72.960720000">
<ele>0</ele>
<time>2026-09-04T07:26:54Z</time>
</trkpt>
<trkpt lat="46.251260000" lon="-72.960740000">
<ele>0</ele>
<time>2026-09-04T07:26:55Z</time>
</trkpt>
<trkpt lat="46.251060000" lon="-72.960720000">
<ele>0</ele>
<time>2026-09-04T07:26:56Z</time>
</trkpt>
<trkpt lat="46.251040000" lon="-72.960830000">
<ele>0</ele>
<time>2026-09-04T07:26:57Z</time>
</trkpt>
<trkpt lat="46.251040000" lon="-72.960830000">
<ele>0</ele>
<time>2026-09-04T07:26:58Z</time>
</trkpt>
<trkpt lat="46.250970000" lon="-72.961250000">
<ele>0</ele>
<time>2026-09-04T07:26:59Z</time>
</trkpt>
<trkpt lat="46.250630000" lon="-72.961900000">
<ele>0</ele>
<time>2026-09-04T07:27:00Z</time>
</trkpt>
<trkpt lat="46.250570000" lon="-72.962080000">
<ele>0</ele>
<time>2026-09-04T07:27:01Z</time>
</trkpt>
<trkpt lat="46.250530000" lon="-72.962280000">
<ele>0</ele>
<time>2026-09-04T07:27:02Z</time>
</trkpt>
<trkpt lat="46.250520000" lon="-72.962880000">
<ele>0</ele>
<time>2026-09-04T07:27:03Z</time>
</trkpt>
<trkpt lat="46.250530000" lon="-72.963070000">
<ele>0</ele>
<time>2026-09-04T07:27:04Z</time>
</trkpt>
<trkpt lat="46.250580000" lon="-72.963180000">
<ele>0</ele>
<time>2026-09-04T07:27:05Z</time>
</trkpt>
<trkpt lat="46.251180000" lon="-72.963820000">
<ele>0</ele>
<time>2026-09-04T07:27:06Z</time>
</trkpt>
<trkpt lat="46.251120000" lon="-72.963930000">
<ele>0</ele>
<time>2026-09-04T07:27:07Z</time>
</trkpt>
<trkpt lat="46.251120000" lon="-72.963930000">
<ele>0</ele>
<time>2026-09-04T07:27:08Z</time>
</trkpt>
<trkpt lat="46.248840000" lon="-72.968080000">
<ele>0</ele>
<time>2026-09-04T07:27:09Z</time>
</trkpt>
<trkpt lat="46.246680000" lon="-72.972050000">
<ele>0</ele>
<time>2026-09-04T07:27:10Z</time>
</trkpt>
<trkpt lat="46.245100000" lon="-72.974980000">
<ele>0</ele>
<time>2026-09-04T07:27:11Z</time>
</trkpt>
<trkpt lat="46.244020000" lon="-72.976960000">
<ele>0</ele>
<time>2026-09-04T07:27:12Z</time>
</trkpt>
<trkpt lat="46.242760000" lon="-72.979260000">
<ele>0</ele>
<time>2026-09-04T07:27:13Z</time>
</trkpt>
<trkpt lat="46.242520000" lon="-72.979700000">
<ele>0</ele>
<time>2026-09-04T07:27:14Z</time>
</trkpt>
<trkpt lat="46.242520000" lon="-72.979700000">
<ele>0</ele>
<time>2026-09-04T07:27:15Z</time>
</trkpt>
<trkpt lat="46.241290000" lon="-72.981970000">
<ele>0</ele>
<time>2026-09-04T07:27:16Z</time>
</trkpt>
<trkpt lat="46.237570000" lon="-72.988760000">
<ele>0</ele>
<time>2026-09-04T07:27:17Z</time>
</trkpt>
<trkpt lat="46.236830000" lon="-72.990120000">
<ele>0</ele>
<time>2026-09-04T07:27:18Z</time>
</trkpt>
<trkpt lat="46.236830000" lon="-72.990110000">
<ele>0</ele>
<time>2026-09-04T07:27:19Z</time>
</trkpt>
<trkpt lat="46.232490000" lon="-72.998020000">
<ele>0</ele>
<time>2026-09-04T07:27:20Z</time>
</trkpt>
<trkpt lat="46.232250000" lon="-72.998450000">
<ele>0</ele>
<time>2026-09-04T07:27:21Z</time>
</trkpt>
<trkpt lat="46.232260000" lon="-72.998540000">
<ele>0</ele>
<time>2026-09-04T07:27:22Z</time>
</trkpt>
<trkpt lat="46.232250000" lon="-72.998670000">
<ele>0</ele>
<time>2026-09-04T07:27:23Z</time>
</trkpt>
<trkpt lat="46.232250000" lon="-72.998670000">
<ele>0</ele>
<time>2026-09-04T07:27:24Z</time>
</trkpt>
<trkpt lat="46.232140000" lon="-72.999250000">
<ele>0</ele>
<time>2026-09-04T07:27:25Z</time>
</trkpt>
<trkpt lat="46.231820000" lon="-73.000530000">
<ele>0</ele>
<time>2026-09-04T07:27:26Z</time>
</trkpt>
<trkpt lat="46.231470000" lon="-73.002010000">
<ele>0</ele>
<time>2026-09-04T07:27:27Z</time>
</trkpt>
<trkpt lat="46.231280000" lon="-73.003010000">
<ele>0</ele>
<time>2026-09-04T07:27:28Z</time>
</trkpt>
<trkpt lat="46.231140000" lon="-73.003670000">
<ele>0</ele>
<time>2026-09-04T07:27:29Z</time>
</trkpt>
<trkpt lat="46.231010000" lon="-73.004170000">
<ele>0</ele>
<time>2026-09-04T07:27:30Z</time>
</trkpt>
<trkpt lat="46.230680000" lon="-73.005370000">
<ele>0</ele>
<time>2026-09-04T07:27:31Z</time>
</trkpt>
<trkpt lat="46.230620000" lon="-73.005610000">
<ele>0</ele>
<time>2026-09-04T07:27:32Z</time>
</trkpt>
<trkpt lat="46.230050000" lon="-73.007750000">
<ele>0</ele>
<time>2026-09-04T07:27:33Z</time>
</trkpt>
<trkpt lat="46.229870000" lon="-73.008540000">
<ele>0</ele>
<time>2026-09-04T07:27:34Z</time>
</trkpt>
<trkpt lat="46.229800000" lon="-73.008730000">
<ele>0</ele>
<time>2026-09-04T07:27:35Z</time>
</trkpt>
<trkpt lat="46.229380000" lon="-73.009920000">
<ele>0</ele>
<time>2026-09-04T07:27:36Z</time>
</trkpt>
<trkpt lat="46.229190000" lon="-73.010620000">
<ele>0</ele>
<time>2026-09-04T07:27:37Z</time>
</trkpt>
<trkpt lat="46.229170000" lon="-73.010790000">
<ele>0</ele>
<time>2026-09-04T07:27:38Z</time>
</trkpt>
<trkpt lat="46.229100000" lon="-73.011240000">
<ele>0</ele>
<time>2026-09-04T07:27:39Z</time>
</trkpt>
<trkpt lat="46.229150000" lon="-73.011610000">
<ele>0</ele>
<time>2026-09-04T07:27:40Z</time>
</trkpt>
<trkpt lat="46.229200000" lon="-73.012390000">
<ele>0</ele>
<time>2026-09-04T07:27:41Z</time>
</trkpt>
<trkpt lat="46.229190000" lon="-73.013600000">
<ele>0</ele>
<time>2026-09-04T07:27:42Z</time>
</trkpt>
<trkpt lat="46.229200000" lon="-73.013790000">
<ele>0</ele>
<time>2026-09-04T07:27:43Z</time>
</trkpt>
<trkpt lat="46.229140000" lon="-73.013970000">
<ele>0</ele>
<time>2026-09-04T07:27:44Z</time>
</trkpt>
<trkpt lat="46.229100000" lon="-73.014140000">
<ele>0</ele>
<time>2026-09-04T07:27:45Z</time>
</trkpt>
<trkpt lat="46.228990000" lon="-73.014340000">
<ele>0</ele>
<time>2026-09-04T07:27:46Z</time>
</trkpt>
<trkpt lat="46.228910000" lon="-73.014410000">
<ele>0</ele>
<time>2026-09-04T07:27:47Z</time>
</trkpt>
<trkpt lat="46.228820000" lon="-73.014430000">
<ele>0</ele>
<time>2026-09-04T07:27:48Z</time>
</trkpt>
<trkpt lat="46.228740000" lon="-73.014660000">
<ele>0</ele>
<time>2026-09-04T07:27:49Z</time>
</trkpt>
<trkpt lat="46.228670000" lon="-73.014900000">
<ele>0</ele>
<time>2026-09-04T07:27:50Z</time>
</trkpt>
<trkpt lat="46.228550000" lon="-73.015390000">
<ele>0</ele>
<time>2026-09-04T07:27:51Z</time>
</trkpt>
<trkpt lat="46.228440000" lon="-73.015770000">
<ele>0</ele>
<time>2026-09-04T07:27:52Z</time>
</trkpt>
<trkpt lat="46.228090000" lon="-73.016600000">
<ele>0</ele>
<time>2026-09-04T07:27:53Z</time>
</trkpt>
<trkpt lat="46.228020000" lon="-73.016500000">
<ele>0</ele>
<time>2026-09-04T07:27:54Z</time>
</trkpt>
<trkpt lat="46.228020000" lon="-73.016500000">
<ele>0</ele>
<time>2026-09-04T07:27:55Z</time>
</trkpt>
<trkpt lat="46.227610000" lon="-73.015990000">
<ele>0</ele>
<time>2026-09-04T07:27:56Z</time>
</trkpt>
<trkpt lat="46.227410000" lon="-73.015880000">
<ele>0</ele>
<time>2026-09-04T07:27:57Z</time>
</trkpt>
<trkpt lat="46.227430000" lon="-73.015970000">
<ele>0</ele>
<time>2026-09-04T07:27:58Z</time>
</trkpt>
<trkpt lat="46.227430000" lon="-73.015970000">
<ele>0</ele>
<time>2026-09-04T07:27:59Z</time>
</trkpt>
<trkpt lat="46.227830000" lon="-73.018310000">
<ele>0</ele>
<time>2026-09-04T07:28:00Z</time>
</trkpt>
<trkpt lat="46.227730000" lon="-73.018350000">
<ele>0</ele>
<time>2026-09-04T07:28:01Z</time>
</trkpt>
<trkpt lat="46.227730000" lon="-73.018350000">
<ele>0</ele>
<time>2026-09-04T07:28:02Z</time>
</trkpt>
<trkpt lat="46.227450000" lon="-73.018430000">
<ele>0</ele>
<time>2026-09-04T07:28:03Z</time>
</trkpt>
<trkpt lat="46.227410000" lon="-73.018460000">
<ele>0</ele>
<time>2026-09-04T07:28:04Z</time>
</trkpt>
<trkpt lat="46.227480000" lon="-73.019050000">
<ele>0</ele>
<time>2026-09-04T07:28:05Z</time>
</trkpt>
<trkpt lat="46.227490000" lon="-73.019180000">
<ele>0</ele>
<time>2026-09-04T07:28:06Z</time>
</trkpt>
<trkpt lat="46.227490000" lon="-73.019180000">
<ele>0</ele>
<time>2026-09-04T07:28:07Z</time>
</trkpt>
<trkpt lat="46.227420000" lon="-73.018530000">
<ele>0</ele>
<time>2026-09-04T07:28:08Z</time>
</trkpt>
<trkpt lat="46.227410000" lon="-73.018460000">
<ele>0</ele>
<time>2026-09-04T07:28:09Z</time>
</trkpt>
<trkpt lat="46.227450000" lon="-73.018430000">
<ele>0</ele>
<time>2026-09-04T07:28:10Z</time>
</trkpt>
<trkpt lat="46.227830000" lon="-73.018310000">
<ele>0</ele>
<time>2026-09-04T07:28:11Z</time>
</trkpt>
<trkpt lat="46.227800000" lon="-73.018150000">
<ele>0</ele>
<time>2026-09-04T07:28:12Z</time>
</trkpt>
<trkpt lat="46.227800000" lon="-73.018150000">
<ele>0</ele>
<time>2026-09-04T07:28:13Z</time>
</trkpt>
<trkpt lat="46.227410000" lon="-73.015880000">
<ele>0</ele>
<time>2026-09-04T07:28:14Z</time>
</trkpt>
<trkpt lat="46.227330000" lon="-73.015840000">
<ele>0</ele>
<time>2026-09-04T07:28:15Z</time>
</trkpt>
<trkpt lat="46.227330000" lon="-73.015840000">
<ele>0</ele>
<time>2026-09-04T07:28:16Z</time>
</trkpt>
<trkpt lat="46.226460000" lon="-73.015350000">
<ele>0</ele>
<time>2026-09-04T07:28:17Z</time>
</trkpt>
<trkpt lat="46.226100000" lon="-73.015230000">
<ele>0</ele>
<time>2026-09-04T07:28:18Z</time>
</trkpt>
<trkpt lat="46.225450000" lon="-73.015060000">
<ele>0</ele>
<time>2026-09-04T07:28:19Z</time>
</trkpt>
<trkpt lat="46.225070000" lon="-73.014990000">
<ele>0</ele>
<time>2026-09-04T07:28:20Z</time>
</trkpt>
<trkpt lat="46.224580000" lon="-73.014960000">
<ele>0</ele>
<time>2026-09-04T07:28:21Z</time>
</trkpt>
<trkpt lat="46.224360000" lon="-73.014920000">
<ele>0</ele>
<time>2026-09-04T07:28:22Z</time>
</trkpt>
<trkpt lat="46.223690000" lon="-73.014940000">
<ele>0</ele>
<time>2026-09-04T07:28:23Z</time>
</trkpt>
<trkpt lat="46.223020000" lon="-73.014850000">
<ele>0</ele>
<time>2026-09-04T07:28:24Z</time>
</trkpt>
<trkpt lat="46.222840000" lon="-73.014820000">
<ele>0</ele>
<time>2026-09-04T07:28:25Z</time>
</trkpt>
<trkpt lat="46.222800000" lon="-73.014940000">
<ele>0</ele>
<time>2026-09-04T07:28:26Z</time>
</trkpt>
<trkpt lat="46.222800000" lon="-73.014940000">
<ele>0</ele>
<time>2026-09-04T07:28:27Z</time>
</trkpt>
<trkpt lat="46.222330000" lon="-73.016220000">
<ele>0</ele>
<time>2026-09-04T07:28:28Z</time>
</trkpt>
<trkpt lat="46.222060000" lon="-73.016860000">
<ele>0</ele>
<time>2026-09-04T07:28:29Z</time>
</trkpt>
<trkpt lat="46.221580000" lon="-73.017910000">
<ele>0</ele>
<time>2026-09-04T07:28:30Z</time>
</trkpt>
<trkpt lat="46.221130000" lon="-73.018760000">
<ele>0</ele>
<time>2026-09-04T07:28:31Z</time>
</trkpt>
<trkpt lat="46.219660000" lon="-73.021450000">
<ele>0</ele>
<time>2026-09-04T07:28:32Z</time>
</trkpt>
<trkpt lat="46.219660000" lon="-73.021450000">
<ele>0</ele>
<time>2026-09-04T07:28:33Z</time>
</trkpt>
<trkpt lat="46.217250000" lon="-73.025840000">
<ele>0</ele>
<time>2026-09-04T07:28:34Z</time>
</trkpt>
<trkpt lat="46.214290000" lon="-73.031240000">
<ele>0</ele>
<time>2026-09-04T07:28:35Z</time>
</trkpt>
<trkpt lat="46.212620000" lon="-73.034350000">
<ele>0</ele>
<time>2026-09-04T07:28:36Z</time>
</trkpt>
<trkpt lat="46.211050000" lon="-73.037240000">
<ele>0</ele>
<time>2026-09-04T07:28:37Z</time>
</trkpt>
<trkpt lat="46.207400000" lon="-73.043880000">
<ele>0</ele>
<time>2026-09-04T07:28:38Z</time>
</trkpt>
<trkpt lat="46.205610000" lon="-73.047140000">
<ele>0</ele>
<time>2026-09-04T07:28:39Z</time>
</trkpt>
<trkpt lat="46.201520000" lon="-73.054640000">
<ele>0</ele>
<time>2026-09-04T07:28:40Z</time>
</trkpt>
<trkpt lat="46.200640000" lon="-73.056200000">
<ele>0</ele>
<time>2026-09-04T07:28:41Z</time>
</trkpt>
<trkpt lat="46.200220000" lon="-73.056910000">
<ele>0</ele>
<time>2026-09-04T07:28:42Z</time>
</trkpt>
<trkpt lat="46.199850000" lon="-73.057520000">
<ele>0</ele>
<time>2026-09-04T07:28:43Z</time>
</trkpt>
<trkpt lat="46.199170000" lon="-73.058550000">
<ele>0</ele>
<time>2026-09-04T07:28:44Z</time>
</trkpt>
<trkpt lat="46.196890000" lon="-73.061950000">
<ele>0</ele>
<time>2026-09-04T07:28:45Z</time>
</trkpt>
<trkpt lat="46.193170000" lon="-73.067490000">
<ele>0</ele>
<time>2026-09-04T07:28:46Z</time>
</trkpt>
<trkpt lat="46.189390000" lon="-73.073110000">
<ele>0</ele>
<time>2026-09-04T07:28:47Z</time>
</trkpt>
<trkpt lat="46.189390000" lon="-73.073110000">
<ele>0</ele>
<time>2026-09-04T07:28:48Z</time>
</trkpt>
<trkpt lat="46.179570000" lon="-73.087730000">
<ele>0</ele>
<time>2026-09-04T07:28:49Z</time>
</trkpt>
<trkpt lat="46.178050000" lon="-73.089950000">
<ele>0</ele>
<time>2026-09-04T07:28:50Z</time>
</trkpt>
<trkpt lat="46.175200000" lon="-73.094040000">
<ele>0</ele>
<time>2026-09-04T07:28:51Z</time>
</trkpt>
<trkpt lat="46.172320000" lon="-73.098160000">
<ele>0</ele>
<time>2026-09-04T07:28:52Z</time>
</trkpt>
<trkpt lat="46.172320000" lon="-73.098160000">
<ele>0</ele>
<time>2026-09-04T07:28:53Z</time>
</trkpt>
<trkpt lat="46.169040000" lon="-73.102880000">
<ele>0</ele>
<time>2026-09-04T07:28:54Z</time>
</trkpt>
<trkpt lat="46.166740000" lon="-73.106150000">
<ele>0</ele>
<time>2026-09-04T07:28:55Z</time>
</trkpt>
<trkpt lat="46.165050000" lon="-73.108510000">
<ele>0</ele>
<time>2026-09-04T07:28:56Z</time>
</trkpt>
<trkpt lat="46.162890000" lon="-73.111560000">
<ele>0</ele>
<time>2026-09-04T07:28:57Z</time>
</trkpt>
<trkpt lat="46.160980000" lon="-73.114310000">
<ele>0</ele>
<time>2026-09-04T07:28:58Z</time>
</trkpt>
<trkpt lat="46.158030000" lon="-73.118880000">
<ele>0</ele>
<time>2026-09-04T07:28:59Z</time>
</trkpt>
<trkpt lat="46.158030000" lon="-73.118880000">
<ele>0</ele>
<time>2026-09-04T07:29:00Z</time>
</trkpt>
<trkpt lat="46.156400000" lon="-73.121420000">
<ele>0</ele>
<time>2026-09-04T07:29:01Z</time>
</trkpt>
<trkpt lat="46.155820000" lon="-73.122300000">
<ele>0</ele>
<time>2026-09-04T07:29:02Z</time>
</trkpt>
<trkpt lat="46.154350000" lon="-73.124330000">
<ele>0</ele>
<time>2026-09-04T07:29:03Z</time>
</trkpt>
<trkpt lat="46.151750000" lon="-73.127790000">
<ele>0</ele>
<time>2026-09-04T07:29:04Z</time>
</trkpt>
<trkpt lat="46.151750000" lon="-73.127790000">
<ele>0</ele>
<time>2026-09-04T07:29:05Z</time>
</trkpt>
<trkpt lat="46.145240000" lon="-73.136500000">
<ele>0</ele>
<time>2026-09-04T07:29:07Z</time>
</trkpt>
<trkpt lat="46.145240000" lon="-73.136500000">
<ele>0</ele>
<time>2026-09-04T07:29:08Z</time>
</trkpt>
<trkpt lat="46.143240000" lon="-73.139170000">
<ele>0</ele>
<time>2026-09-04T07:29:09Z</time>
</trkpt>
<trkpt lat="46.142480000" lon="-73.140130000">
<ele>0</ele>
<time>2026-09-04T07:29:10Z</time>
</trkpt>
<trkpt lat="46.142020000" lon="-73.140600000">
<ele>0</ele>
<time>2026-09-04T07:29:11Z</time>
</trkpt>
<trkpt lat="46.141560000" lon="-73.140950000">
<ele>0</ele>
<time>2026-09-04T07:29:12Z</time>
</trkpt>
<trkpt lat="46.141080000" lon="-73.141250000">
<ele>0</ele>
<time>2026-09-04T07:29:13Z</time>
</trkpt>
<trkpt lat="46.140570000" lon="-73.141460000">
<ele>0</ele>
<time>2026-09-04T07:29:14Z</time>
</trkpt>
<trkpt lat="46.140330000" lon="-73.141540000">
<ele>0</ele>
<time>2026-09-04T07:29:15Z</time>
</trkpt>
<trkpt lat="46.139000000" lon="-73.141890000">
<ele>0</ele>
<time>2026-09-04T07:29:16Z</time>
</trkpt>
<trkpt lat="46.137770000" lon="-73.142180000">
<ele>0</ele>
<time>2026-09-04T07:29:17Z</time>
</trkpt>
<trkpt lat="46.135670000" lon="-73.142700000">
<ele>0</ele>
<time>2026-09-04T07:29:18Z</time>
</trkpt>
<trkpt lat="46.134210000" lon="-73.143060000">
<ele>0</ele>
<time>2026-09-04T07:29:19Z</time>
</trkpt>
<trkpt lat="46.130750000" lon="-73.143960000">
<ele>0</ele>
<time>2026-09-04T07:29:20Z</time>
</trkpt>
<trkpt lat="46.128900000" lon="-73.144410000">
<ele>0</ele>
<time>2026-09-04T07:29:21Z</time>
</trkpt>
<trkpt lat="46.124490000" lon="-73.145500000">
<ele>0</ele>
<time>2026-09-04T07:29:22Z</time>
</trkpt>
<trkpt lat="46.121120000" lon="-73.146340000">
<ele>0</ele>
<time>2026-09-04T07:29:23Z</time>
</trkpt>
<trkpt lat="46.115810000" lon="-73.147650000">
<ele>0</ele>
<time>2026-09-04T07:29:24Z</time>
</trkpt>
<trkpt lat="46.114130000" lon="-73.148070000">
<ele>0</ele>
<time>2026-09-04T07:29:25Z</time>
</trkpt>
<trkpt lat="46.111850000" lon="-73.148640000">
<ele>0</ele>
<time>2026-09-04T07:29:26Z</time>
</trkpt>
<trkpt lat="46.111270000" lon="-73.148780000">
<ele>0</ele>
<time>2026-09-04T07:29:27Z</time>
</trkpt>
<trkpt lat="46.110940000" lon="-73.148880000">
<ele>0</ele>
<time>2026-09-04T07:29:28Z</time>
</trkpt>
<trkpt lat="46.110490000" lon="-73.149060000">
<ele>0</ele>
<time>2026-09-04T07:29:29Z</time>
</trkpt>
<trkpt lat="46.110100000" lon="-73.149290000">
<ele>0</ele>
<time>2026-09-04T07:29:30Z</time>
</trkpt>
<trkpt lat="46.109660000" lon="-73.149610000">
<ele>0</ele>
<time>2026-09-04T07:29:31Z</time>
</trkpt>
<trkpt lat="46.109300000" lon="-73.149940000">
<ele>0</ele>
<time>2026-09-04T07:29:32Z</time>
</trkpt>
<trkpt lat="46.109150000" lon="-73.150110000">
<ele>0</ele>
<time>2026-09-04T07:29:33Z</time>
</trkpt>
<trkpt lat="46.108740000" lon="-73.150670000">
<ele>0</ele>
<time>2026-09-04T07:29:34Z</time>
</trkpt>
<trkpt lat="46.108740000" lon="-73.150670000">
<ele>0</ele>
<time>2026-09-04T07:29:35Z</time>
</trkpt>
<trkpt lat="46.107420000" lon="-73.152600000">
<ele>0</ele>
<time>2026-09-04T07:29:36Z</time>
</trkpt>
<trkpt lat="46.106350000" lon="-73.154170000">
<ele>0</ele>
<time>2026-09-04T07:29:37Z</time>
</trkpt>
<trkpt lat="46.105480000" lon="-73.155460000">
<ele>0</ele>
<time>2026-09-04T07:29:38Z</time>
</trkpt>
<trkpt lat="46.104630000" lon="-73.156720000">
<ele>0</ele>
<time>2026-09-04T07:29:39Z</time>
</trkpt>
<trkpt lat="46.102850000" lon="-73.159260000">
<ele>0</ele>
<time>2026-09-04T07:29:40Z</time>
</trkpt>
<trkpt lat="46.101120000" lon="-73.161840000">
<ele>0</ele>
<time>2026-09-04T07:29:41Z</time>
</trkpt>
<trkpt lat="46.100570000" lon="-73.162750000">
<ele>0</ele>
<time>2026-09-04T07:29:42Z</time>
</trkpt>
<trkpt lat="46.100110000" lon="-73.163540000">
<ele>0</ele>
<time>2026-09-04T07:29:43Z</time>
</trkpt>
<trkpt lat="46.099680000" lon="-73.164230000">
<ele>0</ele>
<time>2026-09-04T07:29:44Z</time>
</trkpt>
<trkpt lat="46.099470000" lon="-73.164160000">
<ele>0</ele>
<time>2026-09-04T07:29:45Z</time>
</trkpt>
<trkpt lat="46.099470000" lon="-73.164160000">
<ele>0</ele>
<time>2026-09-04T07:29:46Z</time>
</trkpt>
<trkpt lat="46.099140000" lon="-73.164050000">
<ele>0</ele>
<time>2026-09-04T07:29:47Z</time>
</trkpt>
<trkpt lat="46.098950000" lon="-73.164150000">
<ele>0</ele>
<time>2026-09-04T07:29:48Z</time>
</trkpt>
<trkpt lat="46.095120000" lon="-73.166960000">
<ele>0</ele>
<time>2026-09-04T07:29:49Z</time>
</trkpt>
<trkpt lat="46.093350000" lon="-73.168250000">
<ele>0</ele>
<time>2026-09-04T07:29:50Z</time>
</trkpt>
<trkpt lat="46.092320000" lon="-73.169030000">
<ele>0</ele>
<time>2026-09-04T07:29:51Z</time>
</trkpt>
<trkpt lat="46.092250000" lon="-73.169120000">
<ele>0</ele>
<time>2026-09-04T07:29:52Z</time>
</trkpt>
<trkpt lat="46.092090000" lon="-73.169220000">
<ele>0</ele>
<time>2026-09-04T07:29:53Z</time>
</trkpt>
<trkpt lat="46.091750000" lon="-73.169410000">
<ele>0</ele>
<time>2026-09-04T07:29:54Z</time>
</trkpt>
<trkpt lat="46.091250000" lon="-73.169690000">
<ele>0</ele>
<time>2026-09-04T07:29:55Z</time>
</trkpt>
<trkpt lat="46.090900000" lon="-73.169890000">
<ele>0</ele>
<time>2026-09-04T07:29:56Z</time>
</trkpt>
<trkpt lat="46.090360000" lon="-73.170330000">
<ele>0</ele>
<time>2026-09-04T07:29:57Z</time>
</trkpt>
<trkpt lat="46.089660000" lon="-73.170900000">
<ele>0</ele>
<time>2026-09-04T07:29:58Z</time>
</trkpt>
<trkpt lat="46.088590000" lon="-73.171660000">
<ele>0</ele>
<time>2026-09-04T07:29:59Z</time>
</trkpt>
<trkpt lat="46.088480000" lon="-73.171400000">
<ele>0</ele>
<time>2026-09-04T07:30:00Z</time>
</trkpt>
<trkpt lat="46.088480000" lon="-73.171400000">
<ele>0</ele>
<time>2026-09-04T07:30:01Z</time>
</trkpt>
<trkpt lat="46.088100000" lon="-73.170520000">
<ele>0</ele>
<time>2026-09-04T07:30:02Z</time>
</trkpt>
<trkpt lat="46.087560000" lon="-73.169380000">
<ele>0</ele>
<time>2026-09-04T07:30:03Z</time>
</trkpt>
<trkpt lat="46.087270000" lon="-73.168740000">
<ele>0</ele>
<time>2026-09-04T07:30:04Z</time>
</trkpt>
<trkpt lat="46.086990000" lon="-73.168170000">
<ele>0</ele>
<time>2026-09-04T07:30:05Z</time>
</trkpt>
<trkpt lat="46.086120000" lon="-73.166390000">
<ele>0</ele>
<time>2026-09-04T07:30:06Z</time>
</trkpt>
<trkpt lat="46.085890000" lon="-73.165940000">
<ele>0</ele>
<time>2026-09-04T07:30:07Z</time>
</trkpt>
<trkpt lat="46.085240000" lon="-73.164700000">
<ele>0</ele>
<time>2026-09-04T07:30:08Z</time>
</trkpt>
<trkpt lat="46.084770000" lon="-73.163770000">
<ele>0</ele>
<time>2026-09-04T07:30:09Z</time>
</trkpt>
<trkpt lat="46.082140000" lon="-73.158350000">
<ele>0</ele>
<time>2026-09-04T07:30:10Z</time>
</trkpt>
<trkpt lat="46.080980000" lon="-73.156040000">
<ele>0</ele>
<time>2026-09-04T07:30:11Z</time>
</trkpt>
<trkpt lat="46.079510000" lon="-73.152980000">
<ele>0</ele>
<time>2026-09-04T07:30:12Z</time>
</trkpt>
<trkpt lat="46.079270000" lon="-73.152470000">
<ele>0</ele>
<time>2026-09-04T07:30:13Z</time>
</trkpt>
<trkpt lat="46.078990000" lon="-73.151750000">
<ele>0</ele>
<time>2026-09-04T07:30:14Z</time>
</trkpt>
<trkpt lat="46.078790000" lon="-73.151170000">
<ele>0</ele>
<time>2026-09-04T07:30:15Z</time>
</trkpt>
<trkpt lat="46.077650000" lon="-73.148490000">
<ele>0</ele>
<time>2026-09-04T07:30:16Z</time>
</trkpt>
<trkpt lat="46.075580000" lon="-73.143620000">
<ele>0</ele>
<time>2026-09-04T07:30:17Z</time>
</trkpt>
<trkpt lat="46.074000000" lon="-73.139890000">
<ele>0</ele>
<time>2026-09-04T07:30:18Z</time>
</trkpt>
<trkpt lat="46.073500000" lon="-73.138750000">
<ele>0</ele>
<time>2026-09-04T07:30:19Z</time>
</trkpt>
<trkpt lat="46.073300000" lon="-73.138330000">
<ele>0</ele>
<time>2026-09-04T07:30:20Z</time>
</trkpt>
<trkpt lat="46.072870000" lon="-73.137490000">
<ele>0</ele>
<time>2026-09-04T07:30:21Z</time>
</trkpt>
<trkpt lat="46.072530000" lon="-73.136930000">
<ele>0</ele>
<time>2026-09-04T07:30:22Z</time>
</trkpt>
<trkpt lat="46.072120000" lon="-73.136330000">
<ele>0</ele>
<time>2026-09-04T07:30:23Z</time>
</trkpt>
<trkpt lat="46.071970000" lon="-73.136130000">
<ele>0</ele>
<time>2026-09-04T07:30:24Z</time>
</trkpt>
<trkpt lat="46.071750000" lon="-73.135840000">
<ele>0</ele>
<time>2026-09-04T07:30:25Z</time>
</trkpt>
<trkpt lat="46.071180000" lon="-73.135200000">
<ele>0</ele>
<time>2026-09-04T07:30:26Z</time>
</trkpt>
<trkpt lat="46.070160000" lon="-73.134110000">
<ele>0</ele>
<time>2026-09-04T07:30:27Z</time>
</trkpt>
<trkpt lat="46.069810000" lon="-73.133720000">
<ele>0</ele>
<time>2026-09-04T07:30:28Z</time>
</trkpt>
<trkpt lat="46.069810000" lon="-73.133720000">
<ele>0</ele>
<time>2026-09-04T07:30:29Z</time>
</trkpt>
<trkpt lat="46.069440000" lon="-73.133170000">
<ele>0</ele>
<time>2026-09-04T07:30:30Z</time>
</trkpt>
<trkpt lat="46.069150000" lon="-73.132540000">
<ele>0</ele>
<time>2026-09-04T07:30:31Z</time>
</trkpt>
<trkpt lat="46.068810000" lon="-73.131740000">
<ele>0</ele>
<time>2026-09-04T07:30:32Z</time>
</trkpt>
<trkpt lat="46.068390000" lon="-73.130780000">
<ele>0</ele>
<time>2026-09-04T07:30:33Z</time>
</trkpt>
<trkpt lat="46.068240000" lon="-73.130480000">
<ele>0</ele>
<time>2026-09-04T07:30:34Z</time>
</trkpt>
<trkpt lat="46.068060000" lon="-73.130210000">
<ele>0</ele>
<time>2026-09-04T07:30:35Z</time>
</trkpt>
<trkpt lat="46.067850000" lon="-73.129980000">
<ele>0</ele>
<time>2026-09-04T07:30:36Z</time>
</trkpt>
<trkpt lat="46.067630000" lon="-73.129810000">
<ele>0</ele>
<time>2026-09-04T07:30:37Z</time>
</trkpt>
<trkpt lat="46.067440000" lon="-73.129700000">
<ele>0</ele>
<time>2026-09-04T07:30:38Z</time>
</trkpt>
<trkpt lat="46.067190000" lon="-73.129600000">
<ele>0</ele>
<time>2026-09-04T07:30:39Z</time>
</trkpt>
<trkpt lat="46.066890000" lon="-73.129550000">
<ele>0</ele>
<time>2026-09-04T07:30:40Z</time>
</trkpt>
<trkpt lat="46.066670000" lon="-73.129540000">
<ele>0</ele>
<time>2026-09-04T07:30:41Z</time>
</trkpt>
<trkpt lat="46.065200000" lon="-73.129600000">
<ele>0</ele>
<time>2026-09-04T07:30:42Z</time>
</trkpt>
<trkpt lat="46.063280000" lon="-73.129700000">
<ele>0</ele>
<time>2026-09-04T07:30:43Z</time>
</trkpt>
<trkpt lat="46.062900000" lon="-73.129670000">
<ele>0</ele>
<time>2026-09-04T07:30:44Z</time>
</trkpt>
<trkpt lat="46.062760000" lon="-73.129660000">
<ele>0</ele>
<time>2026-09-04T07:30:45Z</time>
</trkpt>
<trkpt lat="46.062460000" lon="-73.129560000">
<ele>0</ele>
<time>2026-09-04T07:30:46Z</time>
</trkpt>
<trkpt lat="46.062120000" lon="-73.129390000">
<ele>0</ele>
<time>2026-09-04T07:30:47Z</time>
</trkpt>
<trkpt lat="46.061930000" lon="-73.129260000">
<ele>0</ele>
<time>2026-09-04T07:30:48Z</time>
</trkpt>
<trkpt lat="46.061690000" lon="-73.129050000">
<ele>0</ele>
<time>2026-09-04T07:30:49Z</time>
</trkpt>
<trkpt lat="46.061390000" lon="-73.128730000">
<ele>0</ele>
<time>2026-09-04T07:30:50Z</time>
</trkpt>
<trkpt lat="46.060230000" lon="-73.127350000">
<ele>0</ele>
<time>2026-09-04T07:30:51Z</time>
</trkpt>
<trkpt lat="46.059670000" lon="-73.126630000">
<ele>0</ele>
<time>2026-09-04T07:30:52Z</time>
</trkpt>
<trkpt lat="46.059670000" lon="-73.126630000">
<ele>0</ele>
<time>2026-09-04T07:30:53Z</time>
</trkpt>
<trkpt lat="46.059550000" lon="-73.126420000">
<ele>0</ele>
<time>2026-09-04T07:30:54Z</time>
</trkpt>
<trkpt lat="46.059170000" lon="-73.125560000">
<ele>0</ele>
<time>2026-09-04T07:30:55Z</time>
</trkpt>
<trkpt lat="46.058680000" lon="-73.124630000">
<ele>0</ele>
<time>2026-09-04T07:30:56Z</time>
</trkpt>
<trkpt lat="46.058120000" lon="-73.123840000">
<ele>0</ele>
<time>2026-09-04T07:30:57Z</time>
</trkpt>
<trkpt lat="46.055740000" lon="-73.121230000">
<ele>0</ele>
<time>2026-09-04T07:30:58Z</time>
</trkpt>
<trkpt lat="46.054650000" lon="-73.120830000">
<ele>0</ele>
<time>2026-09-04T07:30:59Z</time>
</trkpt>
<trkpt lat="46.052960000" lon="-73.120210000">
<ele>0</ele>
<time>2026-09-04T07:31:00Z</time>
</trkpt>
<trkpt lat="46.050950000" lon="-73.115940000">
<ele>0</ele>
<time>2026-09-04T07:31:01Z</time>
</trkpt>
<trkpt lat="46.050390000" lon="-73.114860000">
<ele>0</ele>
<time>2026-09-04T07:31:02Z</time>
</trkpt>
<trkpt lat="46.050090000" lon="-73.114510000">
<ele>0</ele>
<time>2026-09-04T07:31:03Z</time>
</trkpt>
<trkpt lat="46.047930000" lon="-73.113740000">
<ele>0</ele>
<time>2026-09-04T07:31:04Z</time>
</trkpt>
<trkpt lat="46.047860000" lon="-73.113730000">
<ele>0</ele>
<time>2026-09-04T07:31:05Z</time>
</trkpt>
<trkpt lat="46.047860000" lon="-73.113730000">
<ele>0</ele>
<time>2026-09-04T07:31:06Z</time>
</trkpt>
<trkpt lat="46.047600000" lon="-73.113700000">
<ele>0</ele>
<time>2026-09-04T07:31:07Z</time>
</trkpt>
<trkpt lat="46.047190000" lon="-73.113740000">
<ele>0</ele>
<time>2026-09-04T07:31:08Z</time>
</trkpt>
<trkpt lat="46.047130000" lon="-73.113700000">
<ele>0</ele>
<time>2026-09-04T07:31:09Z</time>
</trkpt>
<trkpt lat="46.044940000" lon="-73.112790000">
<ele>0</ele>
<time>2026-09-04T07:31:10Z</time>
</trkpt>
<trkpt lat="46.043740000" lon="-73.112290000">
<ele>0</ele>
<time>2026-09-04T07:31:11Z</time>
</trkpt>
<trkpt lat="46.043720000" lon="-73.112400000">
<ele>0</ele>
<time>2026-09-04T07:31:12Z</time>
</trkpt>
<trkpt lat="46.043720000" lon="-73.112400000">
<ele>0</ele>
<time>2026-09-04T07:31:13Z</time>
</trkpt>
<trkpt lat="46.043060000" lon="-73.115740000">
<ele>0</ele>
<time>2026-09-04T07:31:14Z</time>
</trkpt>
<trkpt lat="46.042950000" lon="-73.115690000">
<ele>0</ele>
<time>2026-09-04T07:31:15Z</time>
</trkpt>
<trkpt lat="46.042950000" lon="-73.115690000">
<ele>0</ele>
<time>2026-09-04T07:31:16Z</time>
</trkpt>
<trkpt lat="46.042440000" lon="-73.115480000">
<ele>0</ele>
<time>2026-09-04T07:31:17Z</time>
</trkpt>
<trkpt lat="46.042440000" lon="-73.115480000">
<ele>0</ele>
<time>2026-09-04T07:31:18Z</time>
</trkpt>
<trkpt lat="46.042350000" lon="-73.115450000">
<ele>0</ele>
<time>2026-09-04T07:31:19Z</time>
</trkpt>
<trkpt lat="46.042250000" lon="-73.115500000">
<ele>0</ele>
<time>2026-09-04T07:31:20Z</time>
</trkpt>
<trkpt lat="46.042010000" lon="-73.115990000">
<ele>0</ele>
<time>2026-09-04T07:31:21Z</time>
</trkpt>
<trkpt lat="46.041890000" lon="-73.116230000">
<ele>0</ele>
<time>2026-09-04T07:31:22Z</time>
</trkpt>
<trkpt lat="46.041860000" lon="-73.116360000">
<ele>0</ele>
<time>2026-09-04T07:31:23Z</time>
</trkpt>
<trkpt lat="46.041660000" lon="-73.116930000">
<ele>0</ele>
<time>2026-09-04T07:31:24Z</time>
</trkpt>
<trkpt lat="46.041230000" lon="-73.118220000">
<ele>0</ele>
<time>2026-09-04T07:31:25Z</time>
</trkpt>
<trkpt lat="46.040620000" lon="-73.120070000">
<ele>0</ele>
<time>2026-09-04T07:31:26Z</time>
</trkpt>
<trkpt lat="46.040340000" lon="-73.121120000">
<ele>0</ele>
<time>2026-09-04T07:31:27Z</time>
</trkpt>
<trkpt lat="46.040210000" lon="-73.121670000">
<ele>0</ele>
<time>2026-09-04T07:31:28Z</time>
</trkpt>
<trkpt lat="46.040170000" lon="-73.121920000">
<ele>0</ele>
<time>2026-09-04T07:31:29Z</time>
</trkpt>
<trkpt lat="46.040070000" lon="-73.122590000">
<ele>0</ele>
<time>2026-09-04T07:31:30Z</time>
</trkpt>
<trkpt lat="46.040040000" lon="-73.123100000">
<ele>0</ele>
<time>2026-09-04T07:31:31Z</time>
</trkpt>
<trkpt lat="46.040030000" lon="-73.123450000">
<ele>0</ele>
<time>2026-09-04T07:31:32Z</time>
</trkpt>
<trkpt lat="46.039980000" lon="-73.125950000">
<ele>0</ele>
<time>2026-09-04T07:31:33Z</time>
</trkpt>
<trkpt lat="46.039970000" lon="-73.126180000">
<ele>0</ele>
<time>2026-09-04T07:31:34Z</time>
</trkpt>
<trkpt lat="46.039970000" lon="-73.126180000">
<ele>0</ele>
<time>2026-09-04T07:31:35Z</time>
</trkpt>
<trkpt lat="46.039890000" lon="-73.129660000">
<ele>0</ele>
<time>2026-09-04T07:31:36Z</time>
</trkpt>
<trkpt lat="46.039890000" lon="-73.129750000">
<ele>0</ele>
<time>2026-09-04T07:31:37Z</time>
</trkpt>
<trkpt lat="46.039840000" lon="-73.132110000">
<ele>0</ele>
<time>2026-09-04T07:31:38Z</time>
</trkpt>
<trkpt lat="46.039860000" lon="-73.132810000">
<ele>0</ele>
<time>2026-09-04T07:31:39Z</time>
</trkpt>
<trkpt lat="46.040000000" lon="-73.134000000">
<ele>0</ele>
<time>2026-09-04T07:31:40Z</time>
</trkpt>
<trkpt lat="46.040040000" lon="-73.134840000">
<ele>0</ele>
<time>2026-09-04T07:31:41Z</time>
</trkpt>
<trkpt lat="46.039970000" lon="-73.137990000">
<ele>0</ele>
<time>2026-09-04T07:31:42Z</time>
</trkpt>
<trkpt lat="46.039780000" lon="-73.145490000">
<ele>0</ele>
<time>2026-09-04T07:31:43Z</time>
</trkpt>
<trkpt lat="46.039730000" lon="-73.147140000">
<ele>0</ele>
<time>2026-09-04T07:31:44Z</time>
</trkpt>
<trkpt lat="46.039690000" lon="-73.147530000">
<ele>0</ele>
<time>2026-09-04T07:31:45Z</time>
</trkpt>
<trkpt lat="46.039640000" lon="-73.147800000">
<ele>0</ele>
<time>2026-09-04T07:31:46Z</time>
</trkpt>
<trkpt lat="46.039520000" lon="-73.148240000">
<ele>0</ele>
<time>2026-09-04T07:31:47Z</time>
</trkpt>
<trkpt lat="46.039390000" lon="-73.148580000">
<ele>0</ele>
<time>2026-09-04T07:31:48Z</time>
</trkpt>
<trkpt lat="46.039190000" lon="-73.148940000">
<ele>0</ele>
<time>2026-09-04T07:31:49Z</time>
</trkpt>
<trkpt lat="46.039070000" lon="-73.149120000">
<ele>0</ele>
<time>2026-09-04T07:31:50Z</time>
</trkpt>
<trkpt lat="46.038910000" lon="-73.149310000">
<ele>0</ele>
<time>2026-09-04T07:31:51Z</time>
</trkpt>
<trkpt lat="46.038110000" lon="-73.150110000">
<ele>0</ele>
<time>2026-09-04T07:31:52Z</time>
</trkpt>
<trkpt lat="46.037740000" lon="-73.150440000">
<ele>0</ele>
<time>2026-09-04T07:31:53Z</time>
</trkpt>
<trkpt lat="46.037510000" lon="-73.150610000">
<ele>0</ele>
<time>2026-09-04T07:31:54Z</time>
</trkpt>
<trkpt lat="46.037100000" lon="-73.150840000">
<ele>0</ele>
<time>2026-09-04T07:31:55Z</time>
</trkpt>
<trkpt lat="46.035500000" lon="-73.151610000">
<ele>0</ele>
<time>2026-09-04T07:31:56Z</time>
</trkpt>
<trkpt lat="46.034410000" lon="-73.152130000">
<ele>0</ele>
<time>2026-09-04T07:31:57Z</time>
</trkpt>
<trkpt lat="46.033370000" lon="-73.152650000">
<ele>0</ele>
<time>2026-09-04T07:31:58Z</time>
</trkpt>
<trkpt lat="46.031840000" lon="-73.153380000">
<ele>0</ele>
<time>2026-09-04T07:31:59Z</time>
</trkpt>
<trkpt lat="46.031200000" lon="-73.153680000">
<ele>0</ele>
<time>2026-09-04T07:32:00Z</time>
</trkpt>
<trkpt lat="46.027440000" lon="-73.155490000">
<ele>0</ele>
<time>2026-09-04T07:32:01Z</time>
</trkpt>
<trkpt lat="46.023930000" lon="-73.157180000">
<ele>0</ele>
<time>2026-09-04T07:32:02Z</time>
</trkpt>
<trkpt lat="46.020910000" lon="-73.158630000">
<ele>0</ele>
<time>2026-09-04T07:32:03Z</time>
</trkpt>
<trkpt lat="46.019490000" lon="-73.159310000">
<ele>0</ele>
<time>2026-09-04T07:32:04Z</time>
</trkpt>
<trkpt lat="46.018990000" lon="-73.159560000">
<ele>0</ele>
<time>2026-09-04T07:32:05Z</time>
</trkpt>
<trkpt lat="46.018230000" lon="-73.159910000">
<ele>0</ele>
<time>2026-09-04T07:32:06Z</time>
</trkpt>
<trkpt lat="46.017090000" lon="-73.160460000">
<ele>0</ele>
<time>2026-09-04T07:32:07Z</time>
</trkpt>
<trkpt lat="46.016170000" lon="-73.160900000">
<ele>0</ele>
<time>2026-09-04T07:32:08Z</time>
</trkpt>
</trkseg>
</trk>
</gpx>
